<?xml version="1.0" encoding="UTF-8" standalone="no" ?>
<gpx xmlns="http://www.topografix.com/GPX/1/1" xmlns:xsi="http://www.w3.org/2001/XMLSchema-instance" xsi:schemaLocation="http://www.topografix.com/GPX/1/1 http://www.topografix.com/GPX/1/1/gpx.xsd" version="1.1" creator="VisuGPX - https://www.visugpx.com">
  <metadata>
    <name>Le vignoble (St Clément)</name>
    <desc><![CDATA[circuit Guillestrois No 6]]></desc>
  </metadata>
  <trk>
    <name><![CDATA[110812-Le-vignoble-Guillestrois-6]]></name>
    <trkseg>
      <trkpt lat="44.66033" lon="6.6285">
        <ele>921</ele>
        <time>2011-08-12T09:33:45Z</time>
      </trkpt>
      <trkpt lat="44.66045" lon="6.62837">
        <ele>920</ele>
        <time>2011-08-12T09:35:39Z</time>
      </trkpt>
      <trkpt lat="44.66052" lon="6.62837">
        <ele>920</ele>
        <time>2011-08-12T09:35:43Z</time>
      </trkpt>
      <trkpt lat="44.66067" lon="6.62842">
        <ele>922</ele>
        <time>2011-08-12T09:35:51Z</time>
      </trkpt>
      <trkpt lat="44.66082" lon="6.62838">
        <ele>922</ele>
        <time>2011-08-12T09:35:57Z</time>
      </trkpt>
      <trkpt lat="44.66097" lon="6.62832">
        <ele>922</ele>
        <time>2011-08-12T09:36:01Z</time>
      </trkpt>
      <trkpt lat="44.66115" lon="6.6282">
        <ele>922</ele>
        <time>2011-08-12T09:36:05Z</time>
      </trkpt>
      <trkpt lat="44.66133" lon="6.62803">
        <ele>922</ele>
        <time>2011-08-12T09:36:09Z</time>
      </trkpt>
      <trkpt lat="44.66157" lon="6.62783">
        <ele>921</ele>
        <time>2011-08-12T09:36:13Z</time>
      </trkpt>
      <trkpt lat="44.66168" lon="6.62772">
        <ele>920</ele>
        <time>2011-08-12T09:36:15Z</time>
      </trkpt>
      <trkpt lat="44.66207" lon="6.62737">
        <ele>918</ele>
        <time>2011-08-12T09:36:21Z</time>
      </trkpt>
      <trkpt lat="44.66222" lon="6.62727">
        <ele>918</ele>
        <time>2011-08-12T09:36:23Z</time>
      </trkpt>
      <trkpt lat="44.66237" lon="6.62718">
        <ele>917</ele>
        <time>2011-08-12T09:36:25Z</time>
      </trkpt>
      <trkpt lat="44.66252" lon="6.62712">
        <ele>916</ele>
        <time>2011-08-12T09:36:27Z</time>
      </trkpt>
      <trkpt lat="44.66285" lon="6.62698">
        <ele>916</ele>
        <time>2011-08-12T09:36:31Z</time>
      </trkpt>
      <trkpt lat="44.66315" lon="6.62685">
        <ele>915</ele>
        <time>2011-08-12T09:36:35Z</time>
      </trkpt>
      <trkpt lat="44.6633" lon="6.62673">
        <ele>913</ele>
        <time>2011-08-12T09:36:37Z</time>
      </trkpt>
      <trkpt lat="44.66343" lon="6.6266">
        <ele>911</ele>
        <time>2011-08-12T09:36:39Z</time>
      </trkpt>
      <trkpt lat="44.66352" lon="6.62645">
        <ele>909</ele>
        <time>2011-08-12T09:36:41Z</time>
      </trkpt>
      <trkpt lat="44.6636" lon="6.6263">
        <ele>907</ele>
        <time>2011-08-12T09:36:43Z</time>
      </trkpt>
      <trkpt lat="44.6637" lon="6.6261">
        <ele>904</ele>
        <time>2011-08-12T09:36:47Z</time>
      </trkpt>
      <trkpt lat="44.66377" lon="6.62587">
        <ele>901</ele>
        <time>2011-08-12T09:36:53Z</time>
      </trkpt>
      <trkpt lat="44.66385" lon="6.62572">
        <ele>900</ele>
        <time>2011-08-12T09:37:03Z</time>
      </trkpt>
      <trkpt lat="44.66393" lon="6.62552">
        <ele>898</ele>
        <time>2011-08-12T09:37:08Z</time>
      </trkpt>
      <trkpt lat="44.66405" lon="6.62525">
        <ele>900</ele>
        <time>2011-08-12T09:37:14Z</time>
      </trkpt>
      <trkpt lat="44.66412" lon="6.62505">
        <ele>910</ele>
        <time>2011-08-12T09:37:18Z</time>
      </trkpt>
      <trkpt lat="44.66412" lon="6.62482">
        <ele>917</ele>
        <time>2011-08-12T09:37:24Z</time>
      </trkpt>
      <trkpt lat="44.66397" lon="6.62467">
        <ele>910</ele>
        <time>2011-08-12T09:37:30Z</time>
      </trkpt>
      <trkpt lat="44.66383" lon="6.62462">
        <ele>906</ele>
        <time>2011-08-12T09:37:34Z</time>
      </trkpt>
      <trkpt lat="44.66378" lon="6.62442">
        <ele>906</ele>
        <time>2011-08-12T09:37:38Z</time>
      </trkpt>
      <trkpt lat="44.66373" lon="6.62398">
        <ele>906</ele>
        <time>2011-08-12T09:37:44Z</time>
      </trkpt>
      <trkpt lat="44.6638" lon="6.62368">
        <ele>905</ele>
        <time>2011-08-12T09:37:48Z</time>
      </trkpt>
      <trkpt lat="44.6639" lon="6.62338">
        <ele>904</ele>
        <time>2011-08-12T09:37:52Z</time>
      </trkpt>
      <trkpt lat="44.66413" lon="6.62277">
        <ele>898</ele>
        <time>2011-08-12T09:38:00Z</time>
      </trkpt>
      <trkpt lat="44.66437" lon="6.62212">
        <ele>894</ele>
        <time>2011-08-12T09:38:08Z</time>
      </trkpt>
      <trkpt lat="44.66447" lon="6.62178">
        <ele>893</ele>
        <time>2011-08-12T09:38:12Z</time>
      </trkpt>
      <trkpt lat="44.66457" lon="6.62147">
        <ele>891</ele>
        <time>2011-08-12T09:38:16Z</time>
      </trkpt>
      <trkpt lat="44.66472" lon="6.6212">
        <ele>893</ele>
        <time>2011-08-12T09:38:20Z</time>
      </trkpt>
      <trkpt lat="44.6649" lon="6.62098">
        <ele>893</ele>
        <time>2011-08-12T09:38:24Z</time>
      </trkpt>
      <trkpt lat="44.6653" lon="6.62055">
        <ele>897</ele>
        <time>2011-08-12T09:38:32Z</time>
      </trkpt>
      <trkpt lat="44.66578" lon="6.62005">
        <ele>900</ele>
        <time>2011-08-12T09:38:41Z</time>
      </trkpt>
      <trkpt lat="44.6659" lon="6.61995">
        <ele>900</ele>
        <time>2011-08-12T09:38:43Z</time>
      </trkpt>
      <trkpt lat="44.66603" lon="6.61988">
        <ele>900</ele>
        <time>2011-08-12T09:38:45Z</time>
      </trkpt>
      <trkpt lat="44.66625" lon="6.61973">
        <ele>899</ele>
        <time>2011-08-12T09:38:49Z</time>
      </trkpt>
      <trkpt lat="44.6666" lon="6.6195">
        <ele>900</ele>
        <time>2011-08-12T09:38:55Z</time>
      </trkpt>
      <trkpt lat="44.66683" lon="6.61938">
        <ele>900</ele>
        <time>2011-08-12T09:38:59Z</time>
      </trkpt>
      <trkpt lat="44.66707" lon="6.61928">
        <ele>900</ele>
        <time>2011-08-12T09:39:03Z</time>
      </trkpt>
      <trkpt lat="44.66733" lon="6.61925">
        <ele>899</ele>
        <time>2011-08-12T09:39:07Z</time>
      </trkpt>
      <trkpt lat="44.6677" lon="6.61918">
        <ele>899</ele>
        <time>2011-08-12T09:39:13Z</time>
      </trkpt>
      <trkpt lat="44.66807" lon="6.6191">
        <ele>899</ele>
        <time>2011-08-12T09:39:19Z</time>
      </trkpt>
      <trkpt lat="44.66868" lon="6.61892">
        <ele>901</ele>
        <time>2011-08-12T09:39:29Z</time>
      </trkpt>
      <trkpt lat="44.66895" lon="6.6188">
        <ele>900</ele>
        <time>2011-08-12T09:39:35Z</time>
      </trkpt>
      <trkpt lat="44.66903" lon="6.61865">
        <ele>899</ele>
        <time>2011-08-12T09:39:39Z</time>
      </trkpt>
      <trkpt lat="44.66913" lon="6.61852">
        <ele>899</ele>
        <time>2011-08-12T09:39:43Z</time>
      </trkpt>
      <trkpt lat="44.6693" lon="6.61852">
        <ele>899</ele>
        <time>2011-08-12T09:39:49Z</time>
      </trkpt>
      <trkpt lat="44.66947" lon="6.61853">
        <ele>899</ele>
        <time>2011-08-12T09:39:53Z</time>
      </trkpt>
      <trkpt lat="44.66973" lon="6.61853">
        <ele>899</ele>
        <time>2011-08-12T09:39:59Z</time>
      </trkpt>
      <trkpt lat="44.66993" lon="6.61853">
        <ele>899</ele>
        <time>2011-08-12T09:40:03Z</time>
      </trkpt>
      <trkpt lat="44.67015" lon="6.6185">
        <ele>898</ele>
        <time>2011-08-12T09:40:07Z</time>
      </trkpt>
      <trkpt lat="44.67062" lon="6.61842">
        <ele>898</ele>
        <time>2011-08-12T09:40:15Z</time>
      </trkpt>
      <trkpt lat="44.67085" lon="6.61835">
        <ele>898</ele>
        <time>2011-08-12T09:40:19Z</time>
      </trkpt>
      <trkpt lat="44.67098" lon="6.6183">
        <ele>897</ele>
        <time>2011-08-12T09:40:21Z</time>
      </trkpt>
      <trkpt lat="44.67118" lon="6.61828">
        <ele>897</ele>
        <time>2011-08-12T09:40:25Z</time>
      </trkpt>
      <trkpt lat="44.67128" lon="6.61808">
        <ele>897</ele>
        <time>2011-08-12T09:40:32Z</time>
      </trkpt>
      <trkpt lat="44.67125" lon="6.6178">
        <ele>897</ele>
        <time>2011-08-12T09:40:36Z</time>
      </trkpt>
      <trkpt lat="44.67127" lon="6.6175">
        <ele>896</ele>
        <time>2011-08-12T09:40:40Z</time>
      </trkpt>
      <trkpt lat="44.67125" lon="6.6172">
        <ele>896</ele>
        <time>2011-08-12T09:40:44Z</time>
      </trkpt>
      <trkpt lat="44.67123" lon="6.61688">
        <ele>896</ele>
        <time>2011-08-12T09:40:48Z</time>
      </trkpt>
      <trkpt lat="44.67123" lon="6.61658">
        <ele>895</ele>
        <time>2011-08-12T09:40:52Z</time>
      </trkpt>
      <trkpt lat="44.67122" lon="6.61432">
        <ele>892</ele>
        <time>2011-08-12T09:41:20Z</time>
      </trkpt>
      <trkpt lat="44.67113" lon="6.614">
        <ele>892</ele>
        <time>2011-08-12T09:41:24Z</time>
      </trkpt>
      <trkpt lat="44.67097" lon="6.61373">
        <ele>892</ele>
        <time>2011-08-12T09:41:28Z</time>
      </trkpt>
      <trkpt lat="44.6708" lon="6.61345">
        <ele>891</ele>
        <time>2011-08-12T09:41:32Z</time>
      </trkpt>
      <trkpt lat="44.67065" lon="6.61317">
        <ele>891</ele>
        <time>2011-08-12T09:41:36Z</time>
      </trkpt>
      <trkpt lat="44.67047" lon="6.61282">
        <ele>891</ele>
        <time>2011-08-12T09:41:41Z</time>
      </trkpt>
      <trkpt lat="44.67035" lon="6.61252">
        <ele>891</ele>
        <time>2011-08-12T09:41:45Z</time>
      </trkpt>
      <trkpt lat="44.67022" lon="6.61223">
        <ele>891</ele>
        <time>2011-08-12T09:41:49Z</time>
      </trkpt>
      <trkpt lat="44.67013" lon="6.612">
        <ele>890</ele>
        <time>2011-08-12T09:41:53Z</time>
      </trkpt>
      <trkpt lat="44.67025" lon="6.61185">
        <ele>890</ele>
        <time>2011-08-12T09:42:58Z</time>
      </trkpt>
      <trkpt lat="44.67035" lon="6.6117">
        <ele>890</ele>
        <time>2011-08-12T09:43:04Z</time>
      </trkpt>
      <trkpt lat="44.67023" lon="6.61142">
        <ele>889</ele>
        <time>2011-08-12T09:43:10Z</time>
      </trkpt>
      <trkpt lat="44.67017" lon="6.61112">
        <ele>889</ele>
        <time>2011-08-12T09:43:14Z</time>
      </trkpt>
      <trkpt lat="44.6701" lon="6.61078">
        <ele>889</ele>
        <time>2011-08-12T09:43:18Z</time>
      </trkpt>
      <trkpt lat="44.67007" lon="6.61047">
        <ele>889</ele>
        <time>2011-08-12T09:43:22Z</time>
      </trkpt>
      <trkpt lat="44.66997" lon="6.60977">
        <ele>888</ele>
        <time>2011-08-12T09:43:30Z</time>
      </trkpt>
      <trkpt lat="44.66985" lon="6.60893">
        <ele>886</ele>
        <time>2011-08-12T09:43:40Z</time>
      </trkpt>
      <trkpt lat="44.66975" lon="6.60825">
        <ele>886</ele>
        <time>2011-08-12T09:43:48Z</time>
      </trkpt>
      <trkpt lat="44.66972" lon="6.60788">
        <ele>886</ele>
        <time>2011-08-12T09:43:52Z</time>
      </trkpt>
      <trkpt lat="44.66967" lon="6.60732">
        <ele>885</ele>
        <time>2011-08-12T09:43:58Z</time>
      </trkpt>
      <trkpt lat="44.66962" lon="6.60698">
        <ele>884</ele>
        <time>2011-08-12T09:44:02Z</time>
      </trkpt>
      <trkpt lat="44.66948" lon="6.60595">
        <ele>882</ele>
        <time>2011-08-12T09:44:14Z</time>
      </trkpt>
      <trkpt lat="44.6694" lon="6.60525">
        <ele>882</ele>
        <time>2011-08-12T09:44:22Z</time>
      </trkpt>
      <trkpt lat="44.66935" lon="6.60475">
        <ele>882</ele>
        <time>2011-08-12T09:44:28Z</time>
      </trkpt>
      <trkpt lat="44.66935" lon="6.60443">
        <ele>882</ele>
        <time>2011-08-12T09:44:32Z</time>
      </trkpt>
      <trkpt lat="44.66942" lon="6.6041">
        <ele>883</ele>
        <time>2011-08-12T09:44:36Z</time>
      </trkpt>
      <trkpt lat="44.6695" lon="6.60387">
        <ele>884</ele>
        <time>2011-08-12T09:44:38Z</time>
      </trkpt>
      <trkpt lat="44.66958" lon="6.60367">
        <ele>885</ele>
        <time>2011-08-12T09:44:42Z</time>
      </trkpt>
      <trkpt lat="44.66967" lon="6.6035">
        <ele>886</ele>
        <time>2011-08-12T09:44:45Z</time>
      </trkpt>
      <trkpt lat="44.6698" lon="6.6033">
        <ele>888</ele>
        <time>2011-08-12T09:44:49Z</time>
      </trkpt>
      <trkpt lat="44.66993" lon="6.60317">
        <ele>891</ele>
        <time>2011-08-12T09:44:53Z</time>
      </trkpt>
      <trkpt lat="44.67007" lon="6.60313">
        <ele>895</ele>
        <time>2011-08-12T09:44:57Z</time>
      </trkpt>
      <trkpt lat="44.67022" lon="6.60318">
        <ele>898</ele>
        <time>2011-08-12T09:45:03Z</time>
      </trkpt>
      <trkpt lat="44.67033" lon="6.60335">
        <ele>900</ele>
        <time>2011-08-12T09:45:11Z</time>
      </trkpt>
      <trkpt lat="44.67047" lon="6.6035">
        <ele>901</ele>
        <time>2011-08-12T09:45:19Z</time>
      </trkpt>
      <trkpt lat="44.6706" lon="6.60357">
        <ele>903</ele>
        <time>2011-08-12T09:45:25Z</time>
      </trkpt>
      <trkpt lat="44.67075" lon="6.60362">
        <ele>905</ele>
        <time>2011-08-12T09:45:33Z</time>
      </trkpt>
      <trkpt lat="44.671" lon="6.6037">
        <ele>905</ele>
        <time>2011-08-12T09:45:46Z</time>
      </trkpt>
      <trkpt lat="44.67113" lon="6.60373">
        <ele>906</ele>
        <time>2011-08-12T09:45:52Z</time>
      </trkpt>
      <trkpt lat="44.67128" lon="6.60377">
        <ele>906</ele>
        <time>2011-08-12T09:46:00Z</time>
      </trkpt>
      <trkpt lat="44.67143" lon="6.60378">
        <ele>908</ele>
        <time>2011-08-12T09:46:08Z</time>
      </trkpt>
      <trkpt lat="44.67163" lon="6.6038">
        <ele>910</ele>
        <time>2011-08-12T09:46:18Z</time>
      </trkpt>
      <trkpt lat="44.67178" lon="6.6038">
        <ele>911</ele>
        <time>2011-08-12T09:46:26Z</time>
      </trkpt>
      <trkpt lat="44.67195" lon="6.60378">
        <ele>914</ele>
        <time>2011-08-12T09:46:34Z</time>
      </trkpt>
      <trkpt lat="44.6721" lon="6.6038">
        <ele>915</ele>
        <time>2011-08-12T09:46:42Z</time>
      </trkpt>
      <trkpt lat="44.67225" lon="6.60385">
        <ele>917</ele>
        <time>2011-08-12T09:46:50Z</time>
      </trkpt>
      <trkpt lat="44.67238" lon="6.60395">
        <ele>917</ele>
        <time>2011-08-12T09:46:58Z</time>
      </trkpt>
      <trkpt lat="44.67253" lon="6.6041">
        <ele>915</ele>
        <time>2011-08-12T09:47:08Z</time>
      </trkpt>
      <trkpt lat="44.67268" lon="6.60417">
        <ele>916</ele>
        <time>2011-08-12T09:47:17Z</time>
      </trkpt>
      <trkpt lat="44.67282" lon="6.60425">
        <ele>915</ele>
        <time>2011-08-12T09:47:25Z</time>
      </trkpt>
      <trkpt lat="44.67295" lon="6.60432">
        <ele>914</ele>
        <time>2011-08-12T09:47:33Z</time>
      </trkpt>
      <trkpt lat="44.6731" lon="6.60433">
        <ele>915</ele>
        <time>2011-08-12T09:47:41Z</time>
      </trkpt>
      <trkpt lat="44.67327" lon="6.6043">
        <ele>917</ele>
        <time>2011-08-12T09:47:49Z</time>
      </trkpt>
      <trkpt lat="44.67342" lon="6.60427">
        <ele>919</ele>
        <time>2011-08-12T09:47:57Z</time>
      </trkpt>
      <trkpt lat="44.67357" lon="6.60417">
        <ele>922</ele>
        <time>2011-08-12T09:48:05Z</time>
      </trkpt>
      <trkpt lat="44.67368" lon="6.60402">
        <ele>927</ele>
        <time>2011-08-12T09:48:13Z</time>
      </trkpt>
      <trkpt lat="44.6738" lon="6.6039">
        <ele>930</ele>
        <time>2011-08-12T09:48:21Z</time>
      </trkpt>
      <trkpt lat="44.67393" lon="6.60382">
        <ele>931</ele>
        <time>2011-08-12T09:48:30Z</time>
      </trkpt>
      <trkpt lat="44.67407" lon="6.60378">
        <ele>931</ele>
        <time>2011-08-12T09:48:38Z</time>
      </trkpt>
      <trkpt lat="44.67422" lon="6.60375">
        <ele>931</ele>
        <time>2011-08-12T09:48:46Z</time>
      </trkpt>
      <trkpt lat="44.67438" lon="6.60373">
        <ele>931</ele>
        <time>2011-08-12T09:48:54Z</time>
      </trkpt>
      <trkpt lat="44.6746" lon="6.60373">
        <ele>929</ele>
        <time>2011-08-12T09:49:04Z</time>
      </trkpt>
      <trkpt lat="44.67473" lon="6.6037">
        <ele>929</ele>
        <time>2011-08-12T09:49:10Z</time>
      </trkpt>
      <trkpt lat="44.67483" lon="6.60357">
        <ele>932</ele>
        <time>2011-08-12T09:49:16Z</time>
      </trkpt>
      <trkpt lat="44.67472" lon="6.60347">
        <ele>937</ele>
        <time>2011-08-12T09:49:22Z</time>
      </trkpt>
      <trkpt lat="44.67457" lon="6.60352">
        <ele>936</ele>
        <time>2011-08-12T09:49:28Z</time>
      </trkpt>
      <trkpt lat="44.6744" lon="6.60355">
        <ele>937</ele>
        <time>2011-08-12T09:49:34Z</time>
      </trkpt>
      <trkpt lat="44.67423" lon="6.60355">
        <ele>938</ele>
        <time>2011-08-12T09:49:40Z</time>
      </trkpt>
      <trkpt lat="44.67328" lon="6.60353">
        <ele>942</ele>
        <time>2011-08-12T09:50:13Z</time>
      </trkpt>
      <trkpt lat="44.6731" lon="6.6035">
        <ele>942</ele>
        <time>2011-08-12T09:50:19Z</time>
      </trkpt>
      <trkpt lat="44.67293" lon="6.60345">
        <ele>942</ele>
        <time>2011-08-12T09:50:25Z</time>
      </trkpt>
      <trkpt lat="44.67277" lon="6.6034">
        <ele>941</ele>
        <time>2011-08-12T09:50:31Z</time>
      </trkpt>
      <trkpt lat="44.67258" lon="6.60335">
        <ele>940</ele>
        <time>2011-08-12T09:50:37Z</time>
      </trkpt>
      <trkpt lat="44.67243" lon="6.60328">
        <ele>940</ele>
        <time>2011-08-12T09:50:43Z</time>
      </trkpt>
      <trkpt lat="44.67217" lon="6.60317">
        <ele>940</ele>
        <time>2011-08-12T09:50:53Z</time>
      </trkpt>
      <trkpt lat="44.67167" lon="6.60293">
        <ele>941</ele>
        <time>2011-08-12T09:51:10Z</time>
      </trkpt>
      <trkpt lat="44.67152" lon="6.6028">
        <ele>943</ele>
        <time>2011-08-12T09:51:16Z</time>
      </trkpt>
      <trkpt lat="44.67137" lon="6.60265">
        <ele>945</ele>
        <time>2011-08-12T09:51:22Z</time>
      </trkpt>
      <trkpt lat="44.67123" lon="6.6025">
        <ele>946</ele>
        <time>2011-08-12T09:51:28Z</time>
      </trkpt>
      <trkpt lat="44.67083" lon="6.60202">
        <ele>946</ele>
        <time>2011-08-12T09:51:46Z</time>
      </trkpt>
      <trkpt lat="44.67075" lon="6.60187">
        <ele>946</ele>
        <time>2011-08-12T09:51:50Z</time>
      </trkpt>
      <trkpt lat="44.67065" lon="6.60158">
        <ele>952</ele>
        <time>2011-08-12T09:51:58Z</time>
      </trkpt>
      <trkpt lat="44.67057" lon="6.6014">
        <ele>956</ele>
        <time>2011-08-12T09:52:04Z</time>
      </trkpt>
      <trkpt lat="44.67045" lon="6.60125">
        <ele>957</ele>
        <time>2011-08-12T09:52:10Z</time>
      </trkpt>
      <trkpt lat="44.67032" lon="6.60112">
        <ele>958</ele>
        <time>2011-08-12T09:52:16Z</time>
      </trkpt>
      <trkpt lat="44.6699" lon="6.60067">
        <ele>962</ele>
        <time>2011-08-12T09:52:34Z</time>
      </trkpt>
      <trkpt lat="44.66978" lon="6.60057">
        <ele>964</ele>
        <time>2011-08-12T09:52:39Z</time>
      </trkpt>
      <trkpt lat="44.66965" lon="6.60047">
        <ele>966</ele>
        <time>2011-08-12T09:52:43Z</time>
      </trkpt>
      <trkpt lat="44.66947" lon="6.60035">
        <ele>968</ele>
        <time>2011-08-12T09:52:49Z</time>
      </trkpt>
      <trkpt lat="44.66925" lon="6.60023">
        <ele>969</ele>
        <time>2011-08-12T09:52:55Z</time>
      </trkpt>
      <trkpt lat="44.66867" lon="6.59993">
        <ele>968</ele>
        <time>2011-08-12T09:53:13Z</time>
      </trkpt>
      <trkpt lat="44.66853" lon="6.59982">
        <ele>969</ele>
        <time>2011-08-12T09:53:17Z</time>
      </trkpt>
      <trkpt lat="44.66842" lon="6.5997">
        <ele>970</ele>
        <time>2011-08-12T09:53:21Z</time>
      </trkpt>
      <trkpt lat="44.6683" lon="6.5996">
        <ele>970</ele>
        <time>2011-08-12T09:53:25Z</time>
      </trkpt>
      <trkpt lat="44.66812" lon="6.59943">
        <ele>971</ele>
        <time>2011-08-12T09:53:31Z</time>
      </trkpt>
      <trkpt lat="44.668" lon="6.59932">
        <ele>972</ele>
        <time>2011-08-12T09:53:35Z</time>
      </trkpt>
      <trkpt lat="44.6675" lon="6.59882">
        <ele>973</ele>
        <time>2011-08-12T09:53:53Z</time>
      </trkpt>
      <trkpt lat="44.66737" lon="6.5987">
        <ele>971</ele>
        <time>2011-08-12T09:53:58Z</time>
      </trkpt>
      <trkpt lat="44.66723" lon="6.59855">
        <ele>971</ele>
        <time>2011-08-12T09:54:04Z</time>
      </trkpt>
      <trkpt lat="44.66712" lon="6.59838">
        <ele>971</ele>
        <time>2011-08-12T09:54:10Z</time>
      </trkpt>
      <trkpt lat="44.667" lon="6.5982">
        <ele>972</ele>
        <time>2011-08-12T09:54:16Z</time>
      </trkpt>
      <trkpt lat="44.66692" lon="6.59802">
        <ele>975</ele>
        <time>2011-08-12T09:54:22Z</time>
      </trkpt>
      <trkpt lat="44.66685" lon="6.5978">
        <ele>979</ele>
        <time>2011-08-12T09:54:28Z</time>
      </trkpt>
      <trkpt lat="44.6668" lon="6.5976">
        <ele>981</ele>
        <time>2011-08-12T09:54:34Z</time>
      </trkpt>
      <trkpt lat="44.66672" lon="6.59742">
        <ele>980</ele>
        <time>2011-08-12T09:54:40Z</time>
      </trkpt>
      <trkpt lat="44.66663" lon="6.59722">
        <ele>980</ele>
        <time>2011-08-12T09:54:46Z</time>
      </trkpt>
      <trkpt lat="44.6666" lon="6.597">
        <ele>980</ele>
        <time>2011-08-12T09:54:52Z</time>
      </trkpt>
      <trkpt lat="44.66662" lon="6.5968">
        <ele>982</ele>
        <time>2011-08-12T09:54:58Z</time>
      </trkpt>
      <trkpt lat="44.66665" lon="6.59642">
        <ele>986</ele>
        <time>2011-08-12T09:55:08Z</time>
      </trkpt>
      <trkpt lat="44.66665" lon="6.59622">
        <ele>986</ele>
        <time>2011-08-12T09:55:31Z</time>
      </trkpt>
      <trkpt lat="44.66665" lon="6.59597">
        <ele>987</ele>
        <time>2011-08-12T09:55:37Z</time>
      </trkpt>
      <trkpt lat="44.66665" lon="6.59577">
        <ele>988</ele>
        <time>2011-08-12T09:55:40Z</time>
      </trkpt>
      <trkpt lat="44.66662" lon="6.59548">
        <ele>988</ele>
        <time>2011-08-12T09:55:47Z</time>
      </trkpt>
      <trkpt lat="44.66655" lon="6.59498">
        <ele>988</ele>
        <time>2011-08-12T09:55:57Z</time>
      </trkpt>
      <trkpt lat="44.66652" lon="6.59478">
        <ele>988</ele>
        <time>2011-08-12T09:56:01Z</time>
      </trkpt>
      <trkpt lat="44.66645" lon="6.59445">
        <ele>989</ele>
        <time>2011-08-12T09:56:07Z</time>
      </trkpt>
      <trkpt lat="44.6664" lon="6.59423">
        <ele>990</ele>
        <time>2011-08-12T09:56:11Z</time>
      </trkpt>
      <trkpt lat="44.6663" lon="6.59403">
        <ele>989</ele>
        <time>2011-08-12T09:56:15Z</time>
      </trkpt>
      <trkpt lat="44.66618" lon="6.59385">
        <ele>987</ele>
        <time>2011-08-12T09:56:19Z</time>
      </trkpt>
      <trkpt lat="44.66607" lon="6.59363">
        <ele>986</ele>
        <time>2011-08-12T09:56:23Z</time>
      </trkpt>
      <trkpt lat="44.66598" lon="6.59338">
        <ele>985</ele>
        <time>2011-08-12T09:56:27Z</time>
      </trkpt>
      <trkpt lat="44.66577" lon="6.5927">
        <ele>980</ele>
        <time>2011-08-12T09:56:35Z</time>
      </trkpt>
      <trkpt lat="44.66573" lon="6.5925">
        <ele>980</ele>
        <time>2011-08-12T09:56:37Z</time>
      </trkpt>
      <trkpt lat="44.66572" lon="6.59228">
        <ele>981</ele>
        <time>2011-08-12T09:56:39Z</time>
      </trkpt>
      <trkpt lat="44.66575" lon="6.59193">
        <ele>987</ele>
        <time>2011-08-12T09:56:43Z</time>
      </trkpt>
      <trkpt lat="44.66565" lon="6.5917">
        <ele>987</ele>
        <time>2011-08-12T09:56:47Z</time>
      </trkpt>
      <trkpt lat="44.6655" lon="6.59158">
        <ele>984</ele>
        <time>2011-08-12T09:56:51Z</time>
      </trkpt>
      <trkpt lat="44.66538" lon="6.59145">
        <ele>983</ele>
        <time>2011-08-12T09:56:55Z</time>
      </trkpt>
      <trkpt lat="44.66528" lon="6.59128">
        <ele>985</ele>
        <time>2011-08-12T09:56:59Z</time>
      </trkpt>
      <trkpt lat="44.66513" lon="6.59103">
        <ele>990</ele>
        <time>2011-08-12T09:57:06Z</time>
      </trkpt>
      <trkpt lat="44.66502" lon="6.59093">
        <ele>990</ele>
        <time>2011-08-12T09:57:10Z</time>
      </trkpt>
      <trkpt lat="44.66483" lon="6.59087">
        <ele>989</ele>
        <time>2011-08-12T09:57:16Z</time>
      </trkpt>
      <trkpt lat="44.6647" lon="6.59082">
        <ele>988</ele>
        <time>2011-08-12T09:57:20Z</time>
      </trkpt>
      <trkpt lat="44.66457" lon="6.59078">
        <ele>986</ele>
        <time>2011-08-12T09:57:24Z</time>
      </trkpt>
      <trkpt lat="44.6644" lon="6.59067">
        <ele>987</ele>
        <time>2011-08-12T09:57:30Z</time>
      </trkpt>
      <trkpt lat="44.66427" lon="6.59058">
        <ele>988</ele>
        <time>2011-08-12T09:57:34Z</time>
      </trkpt>
      <trkpt lat="44.66407" lon="6.5905">
        <ele>987</ele>
        <time>2011-08-12T09:57:40Z</time>
      </trkpt>
      <trkpt lat="44.66392" lon="6.59043">
        <ele>986</ele>
        <time>2011-08-12T09:57:44Z</time>
      </trkpt>
      <trkpt lat="44.6636" lon="6.59028">
        <ele>984</ele>
        <time>2011-08-12T09:57:52Z</time>
      </trkpt>
      <trkpt lat="44.66345" lon="6.59017">
        <ele>984</ele>
        <time>2011-08-12T09:57:56Z</time>
      </trkpt>
      <trkpt lat="44.66333" lon="6.59">
        <ele>985</ele>
        <time>2011-08-12T09:58:00Z</time>
      </trkpt>
      <trkpt lat="44.66322" lon="6.58978">
        <ele>986</ele>
        <time>2011-08-12T09:58:05Z</time>
      </trkpt>
      <trkpt lat="44.66308" lon="6.58955">
        <ele>986</ele>
        <time>2011-08-12T09:58:11Z</time>
      </trkpt>
      <trkpt lat="44.663" lon="6.58932">
        <ele>989</ele>
        <time>2011-08-12T09:58:17Z</time>
      </trkpt>
      <trkpt lat="44.66302" lon="6.58957">
        <ele>984</ele>
        <time>2011-08-12T09:59:36Z</time>
      </trkpt>
      <trkpt lat="44.6631" lon="6.58975">
        <ele>983</ele>
        <time>2011-08-12T09:59:44Z</time>
      </trkpt>
      <trkpt lat="44.66322" lon="6.58988">
        <ele>984</ele>
        <time>2011-08-12T09:59:50Z</time>
      </trkpt>
      <trkpt lat="44.66332" lon="6.59005">
        <ele>983</ele>
        <time>2011-08-12T09:59:55Z</time>
      </trkpt>
      <trkpt lat="44.66342" lon="6.59018">
        <ele>982</ele>
        <time>2011-08-12T09:59:59Z</time>
      </trkpt>
      <trkpt lat="44.66353" lon="6.59032">
        <ele>982</ele>
        <time>2011-08-12T10:00:03Z</time>
      </trkpt>
      <trkpt lat="44.66367" lon="6.5904">
        <ele>982</ele>
        <time>2011-08-12T10:00:07Z</time>
      </trkpt>
      <trkpt lat="44.66385" lon="6.59047">
        <ele>984</ele>
        <time>2011-08-12T10:00:11Z</time>
      </trkpt>
      <trkpt lat="44.66422" lon="6.59062">
        <ele>986</ele>
        <time>2011-08-12T10:00:19Z</time>
      </trkpt>
      <trkpt lat="44.6644" lon="6.59072">
        <ele>986</ele>
        <time>2011-08-12T10:00:23Z</time>
      </trkpt>
      <trkpt lat="44.6646" lon="6.59083">
        <ele>985</ele>
        <time>2011-08-12T10:00:27Z</time>
      </trkpt>
      <trkpt lat="44.66485" lon="6.5909">
        <ele>988</ele>
        <time>2011-08-12T10:00:31Z</time>
      </trkpt>
      <trkpt lat="44.66503" lon="6.59102">
        <ele>988</ele>
        <time>2011-08-12T10:00:34Z</time>
      </trkpt>
      <trkpt lat="44.66515" lon="6.59115">
        <ele>986</ele>
        <time>2011-08-12T10:00:36Z</time>
      </trkpt>
      <trkpt lat="44.6654" lon="6.59152">
        <ele>982</ele>
        <time>2011-08-12T10:00:42Z</time>
      </trkpt>
      <trkpt lat="44.66525" lon="6.59143">
        <ele>980</ele>
        <time>2011-08-12T10:00:48Z</time>
      </trkpt>
      <trkpt lat="44.66502" lon="6.59137">
        <ele>976</ele>
        <time>2011-08-12T10:00:52Z</time>
      </trkpt>
      <trkpt lat="44.66477" lon="6.59128">
        <ele>973</ele>
        <time>2011-08-12T10:00:56Z</time>
      </trkpt>
      <trkpt lat="44.66455" lon="6.59115">
        <ele>973</ele>
        <time>2011-08-12T10:01:00Z</time>
      </trkpt>
      <trkpt lat="44.6643" lon="6.59107">
        <ele>971</ele>
        <time>2011-08-12T10:01:04Z</time>
      </trkpt>
      <trkpt lat="44.664" lon="6.59097">
        <ele>968</ele>
        <time>2011-08-12T10:01:08Z</time>
      </trkpt>
      <trkpt lat="44.66368" lon="6.5909">
        <ele>963</ele>
        <time>2011-08-12T10:01:12Z</time>
      </trkpt>
      <trkpt lat="44.66353" lon="6.59085">
        <ele>962</ele>
        <time>2011-08-12T10:01:14Z</time>
      </trkpt>
      <trkpt lat="44.66332" lon="6.59072">
        <ele>962</ele>
        <time>2011-08-12T10:01:17Z</time>
      </trkpt>
      <trkpt lat="44.66318" lon="6.5906">
        <ele>963</ele>
        <time>2011-08-12T10:01:19Z</time>
      </trkpt>
      <trkpt lat="44.66292" lon="6.59038">
        <ele>960</ele>
        <time>2011-08-12T10:01:23Z</time>
      </trkpt>
      <trkpt lat="44.66278" lon="6.59028">
        <ele>958</ele>
        <time>2011-08-12T10:01:25Z</time>
      </trkpt>
      <trkpt lat="44.6625" lon="6.59005">
        <ele>954</ele>
        <time>2011-08-12T10:01:29Z</time>
      </trkpt>
      <trkpt lat="44.66237" lon="6.58998">
        <ele>951</ele>
        <time>2011-08-12T10:01:33Z</time>
      </trkpt>
      <trkpt lat="44.66245" lon="6.59017">
        <ele>949</ele>
        <time>2011-08-12T10:01:37Z</time>
      </trkpt>
      <trkpt lat="44.6626" lon="6.59042">
        <ele>948</ele>
        <time>2011-08-12T10:01:41Z</time>
      </trkpt>
      <trkpt lat="44.66273" lon="6.59058">
        <ele>948</ele>
        <time>2011-08-12T10:01:45Z</time>
      </trkpt>
      <trkpt lat="44.66257" lon="6.5905">
        <ele>944</ele>
        <time>2011-08-12T10:01:53Z</time>
      </trkpt>
      <trkpt lat="44.6624" lon="6.59033">
        <ele>943</ele>
        <time>2011-08-12T10:01:57Z</time>
      </trkpt>
      <trkpt lat="44.6622" lon="6.59017">
        <ele>940</ele>
        <time>2011-08-12T10:02:01Z</time>
      </trkpt>
      <trkpt lat="44.66203" lon="6.59003">
        <ele>938</ele>
        <time>2011-08-12T10:02:05Z</time>
      </trkpt>
      <trkpt lat="44.66215" lon="6.5903">
        <ele>935</ele>
        <time>2011-08-12T10:02:11Z</time>
      </trkpt>
      <trkpt lat="44.6623" lon="6.59057">
        <ele>933</ele>
        <time>2011-08-12T10:02:15Z</time>
      </trkpt>
      <trkpt lat="44.66245" lon="6.59078">
        <ele>930</ele>
        <time>2011-08-12T10:02:19Z</time>
      </trkpt>
      <trkpt lat="44.66228" lon="6.59075">
        <ele>926</ele>
        <time>2011-08-12T10:02:25Z</time>
      </trkpt>
      <trkpt lat="44.6621" lon="6.59063">
        <ele>923</ele>
        <time>2011-08-12T10:02:29Z</time>
      </trkpt>
      <trkpt lat="44.66183" lon="6.59048">
        <ele>917</ele>
        <time>2011-08-12T10:02:34Z</time>
      </trkpt>
      <trkpt lat="44.6617" lon="6.59035">
        <ele>916</ele>
        <time>2011-08-12T10:02:38Z</time>
      </trkpt>
      <trkpt lat="44.66165" lon="6.59055">
        <ele>908</ele>
        <time>2011-08-12T10:02:44Z</time>
      </trkpt>
      <trkpt lat="44.6618" lon="6.59082">
        <ele>905</ele>
        <time>2011-08-12T10:02:48Z</time>
      </trkpt>
      <trkpt lat="44.66205" lon="6.59125">
        <ele>902</ele>
        <time>2011-08-12T10:02:54Z</time>
      </trkpt>
      <trkpt lat="44.66217" lon="6.59137">
        <ele>902</ele>
        <time>2011-08-12T10:02:56Z</time>
      </trkpt>
      <trkpt lat="44.66237" lon="6.59163">
        <ele>900</ele>
        <time>2011-08-12T10:03:00Z</time>
      </trkpt>
      <trkpt lat="44.66253" lon="6.59192">
        <ele>897</ele>
        <time>2011-08-12T10:03:04Z</time>
      </trkpt>
      <trkpt lat="44.66263" lon="6.59207">
        <ele>896</ele>
        <time>2011-08-12T10:03:06Z</time>
      </trkpt>
      <trkpt lat="44.6629" lon="6.59247">
        <ele>894</ele>
        <time>2011-08-12T10:03:12Z</time>
      </trkpt>
      <trkpt lat="44.66307" lon="6.59268">
        <ele>894</ele>
        <time>2011-08-12T10:03:16Z</time>
      </trkpt>
      <trkpt lat="44.66322" lon="6.59283">
        <ele>894</ele>
        <time>2011-08-12T10:03:19Z</time>
      </trkpt>
      <trkpt lat="44.66342" lon="6.59307">
        <ele>893</ele>
        <time>2011-08-12T10:03:23Z</time>
      </trkpt>
      <trkpt lat="44.6636" lon="6.59332">
        <ele>893</ele>
        <time>2011-08-12T10:03:27Z</time>
      </trkpt>
      <trkpt lat="44.66367" lon="6.59357">
        <ele>892</ele>
        <time>2011-08-12T10:03:31Z</time>
      </trkpt>
      <trkpt lat="44.66363" lon="6.59382">
        <ele>890</ele>
        <time>2011-08-12T10:03:35Z</time>
      </trkpt>
      <trkpt lat="44.6637" lon="6.59407">
        <ele>890</ele>
        <time>2011-08-12T10:03:39Z</time>
      </trkpt>
      <trkpt lat="44.66382" lon="6.59435">
        <ele>891</ele>
        <time>2011-08-12T10:03:43Z</time>
      </trkpt>
      <trkpt lat="44.664" lon="6.59483">
        <ele>890</ele>
        <time>2011-08-12T10:03:49Z</time>
      </trkpt>
      <trkpt lat="44.66412" lon="6.59525">
        <ele>887</ele>
        <time>2011-08-12T10:03:53Z</time>
      </trkpt>
      <trkpt lat="44.66415" lon="6.59557">
        <ele>884</ele>
        <time>2011-08-12T10:03:58Z</time>
      </trkpt>
      <trkpt lat="44.66402" lon="6.59578">
        <ele>880</ele>
        <time>2011-08-12T10:04:02Z</time>
      </trkpt>
      <trkpt lat="44.66405" lon="6.596">
        <ele>879</ele>
        <time>2011-08-12T10:04:06Z</time>
      </trkpt>
      <trkpt lat="44.66418" lon="6.59622">
        <ele>878</ele>
        <time>2011-08-12T10:04:10Z</time>
      </trkpt>
      <trkpt lat="44.66452" lon="6.5968">
        <ele>877</ele>
        <time>2011-08-12T10:04:22Z</time>
      </trkpt>
      <trkpt lat="44.66443" lon="6.597">
        <ele>875</ele>
        <time>2011-08-12T10:04:28Z</time>
      </trkpt>
      <trkpt lat="44.66435" lon="6.59722">
        <ele>874</ele>
        <time>2011-08-12T10:04:49Z</time>
      </trkpt>
      <trkpt lat="44.66423" lon="6.59733">
        <ele>874</ele>
        <time>2011-08-12T10:04:53Z</time>
      </trkpt>
      <trkpt lat="44.6641" lon="6.59745">
        <ele>874</ele>
        <time>2011-08-12T10:04:57Z</time>
      </trkpt>
      <trkpt lat="44.66383" lon="6.59768">
        <ele>877</ele>
        <time>2011-08-12T10:05:05Z</time>
      </trkpt>
      <trkpt lat="44.66338" lon="6.59805">
        <ele>880</ele>
        <time>2011-08-12T10:05:17Z</time>
      </trkpt>
      <trkpt lat="44.66325" lon="6.59798">
        <ele>880</ele>
        <time>2011-08-12T10:05:21Z</time>
      </trkpt>
      <trkpt lat="44.66313" lon="6.59772">
        <ele>879</ele>
        <time>2011-08-12T10:05:26Z</time>
      </trkpt>
      <trkpt lat="44.66302" lon="6.5975">
        <ele>879</ele>
        <time>2011-08-12T10:05:30Z</time>
      </trkpt>
      <trkpt lat="44.66278" lon="6.59713">
        <ele>879</ele>
        <time>2011-08-12T10:05:37Z</time>
      </trkpt>
      <trkpt lat="44.66245" lon="6.59658">
        <ele>879</ele>
        <time>2011-08-12T10:05:47Z</time>
      </trkpt>
      <trkpt lat="44.66242" lon="6.5963">
        <ele>879</ele>
        <time>2011-08-12T10:05:51Z</time>
      </trkpt>
      <trkpt lat="44.6624" lon="6.59605">
        <ele>879</ele>
        <time>2011-08-12T10:05:55Z</time>
      </trkpt>
      <trkpt lat="44.66232" lon="6.59578">
        <ele>879</ele>
        <time>2011-08-12T10:05:59Z</time>
      </trkpt>
      <trkpt lat="44.66217" lon="6.59555">
        <ele>879</ele>
        <time>2011-08-12T10:06:03Z</time>
      </trkpt>
      <trkpt lat="44.662" lon="6.5954">
        <ele>879</ele>
        <time>2011-08-12T10:06:07Z</time>
      </trkpt>
      <trkpt lat="44.6618" lon="6.59523">
        <ele>879</ele>
        <time>2011-08-12T10:06:11Z</time>
      </trkpt>
      <trkpt lat="44.66165" lon="6.595">
        <ele>879</ele>
        <time>2011-08-12T10:06:15Z</time>
      </trkpt>
      <trkpt lat="44.6615" lon="6.59478">
        <ele>879</ele>
        <time>2011-08-12T10:06:19Z</time>
      </trkpt>
      <trkpt lat="44.66128" lon="6.59458">
        <ele>879</ele>
        <time>2011-08-12T10:06:24Z</time>
      </trkpt>
      <trkpt lat="44.66107" lon="6.59453">
        <ele>879</ele>
        <time>2011-08-12T10:06:28Z</time>
      </trkpt>
      <trkpt lat="44.66087" lon="6.59447">
        <ele>879</ele>
        <time>2011-08-12T10:06:32Z</time>
      </trkpt>
      <trkpt lat="44.66067" lon="6.59433">
        <ele>879</ele>
        <time>2011-08-12T10:06:36Z</time>
      </trkpt>
      <trkpt lat="44.6605" lon="6.59422">
        <ele>879</ele>
        <time>2011-08-12T10:06:40Z</time>
      </trkpt>
      <trkpt lat="44.66037" lon="6.59407">
        <ele>879</ele>
        <time>2011-08-12T10:06:46Z</time>
      </trkpt>
      <trkpt lat="44.6602" lon="6.59408">
        <ele>879</ele>
        <time>2011-08-12T10:06:52Z</time>
      </trkpt>
      <trkpt lat="44.65998" lon="6.59403">
        <ele>879</ele>
        <time>2011-08-12T10:07:01Z</time>
      </trkpt>
      <trkpt lat="44.65978" lon="6.59397">
        <ele>879</ele>
        <time>2011-08-12T10:07:07Z</time>
      </trkpt>
      <trkpt lat="44.6596" lon="6.59395">
        <ele>879</ele>
        <time>2011-08-12T10:07:12Z</time>
      </trkpt>
      <trkpt lat="44.65942" lon="6.59398">
        <ele>879</ele>
        <time>2011-08-12T10:07:18Z</time>
      </trkpt>
      <trkpt lat="44.65925" lon="6.59403">
        <ele>879</ele>
        <time>2011-08-12T10:07:24Z</time>
      </trkpt>
      <trkpt lat="44.65908" lon="6.59398">
        <ele>879</ele>
        <time>2011-08-12T10:07:31Z</time>
      </trkpt>
      <trkpt lat="44.65897" lon="6.59387">
        <ele>879</ele>
        <time>2011-08-12T10:07:37Z</time>
      </trkpt>
      <trkpt lat="44.6588" lon="6.59388">
        <ele>879</ele>
        <time>2011-08-12T10:08:31Z</time>
      </trkpt>
      <trkpt lat="44.65867" lon="6.59375">
        <ele>879</ele>
        <time>2011-08-12T10:08:37Z</time>
      </trkpt>
      <trkpt lat="44.65865" lon="6.59355">
        <ele>879</ele>
        <time>2011-08-12T10:08:41Z</time>
      </trkpt>
      <trkpt lat="44.65867" lon="6.59333">
        <ele>879</ele>
        <time>2011-08-12T10:08:45Z</time>
      </trkpt>
      <trkpt lat="44.65867" lon="6.59308">
        <ele>879</ele>
        <time>2011-08-12T10:08:49Z</time>
      </trkpt>
      <trkpt lat="44.65865" lon="6.59282">
        <ele>879</ele>
        <time>2011-08-12T10:08:53Z</time>
      </trkpt>
      <trkpt lat="44.65858" lon="6.59257">
        <ele>879</ele>
        <time>2011-08-12T10:08:57Z</time>
      </trkpt>
      <trkpt lat="44.65845" lon="6.59238">
        <ele>879</ele>
        <time>2011-08-12T10:09:01Z</time>
      </trkpt>
      <trkpt lat="44.65825" lon="6.59223">
        <ele>879</ele>
        <time>2011-08-12T10:09:05Z</time>
      </trkpt>
      <trkpt lat="44.65803" lon="6.59217">
        <ele>879</ele>
        <time>2011-08-12T10:09:09Z</time>
      </trkpt>
      <trkpt lat="44.65783" lon="6.59203">
        <ele>879</ele>
        <time>2011-08-12T10:09:13Z</time>
      </trkpt>
      <trkpt lat="44.6577" lon="6.59185">
        <ele>879</ele>
        <time>2011-08-12T10:09:17Z</time>
      </trkpt>
      <trkpt lat="44.65755" lon="6.5916">
        <ele>879</ele>
        <time>2011-08-12T10:09:23Z</time>
      </trkpt>
      <trkpt lat="44.65747" lon="6.59143">
        <ele>879</ele>
        <time>2011-08-12T10:09:27Z</time>
      </trkpt>
      <trkpt lat="44.65733" lon="6.59115">
        <ele>879</ele>
        <time>2011-08-12T10:09:34Z</time>
      </trkpt>
      <trkpt lat="44.65725" lon="6.59092">
        <ele>878</ele>
        <time>2011-08-12T10:09:40Z</time>
      </trkpt>
      <trkpt lat="44.65718" lon="6.5907">
        <ele>877</ele>
        <time>2011-08-12T10:09:46Z</time>
      </trkpt>
      <trkpt lat="44.6571" lon="6.5904">
        <ele>875</ele>
        <time>2011-08-12T10:09:52Z</time>
      </trkpt>
      <trkpt lat="44.65705" lon="6.59018">
        <ele>874</ele>
        <time>2011-08-12T10:09:56Z</time>
      </trkpt>
      <trkpt lat="44.65697" lon="6.59">
        <ele>874</ele>
        <time>2011-08-12T10:10:00Z</time>
      </trkpt>
      <trkpt lat="44.65687" lon="6.58982">
        <ele>874</ele>
        <time>2011-08-12T10:10:04Z</time>
      </trkpt>
      <trkpt lat="44.65677" lon="6.58963">
        <ele>874</ele>
        <time>2011-08-12T10:10:08Z</time>
      </trkpt>
      <trkpt lat="44.65667" lon="6.58947">
        <ele>874</ele>
        <time>2011-08-12T10:10:12Z</time>
      </trkpt>
      <trkpt lat="44.65658" lon="6.58925">
        <ele>874</ele>
        <time>2011-08-12T10:10:20Z</time>
      </trkpt>
      <trkpt lat="44.65647" lon="6.58907">
        <ele>875</ele>
        <time>2011-08-12T10:10:26Z</time>
      </trkpt>
      <trkpt lat="44.65633" lon="6.5889">
        <ele>875</ele>
        <time>2011-08-12T10:10:32Z</time>
      </trkpt>
      <trkpt lat="44.65593" lon="6.58842">
        <ele>876</ele>
        <time>2011-08-12T10:10:45Z</time>
      </trkpt>
      <trkpt lat="44.65578" lon="6.58827">
        <ele>877</ele>
        <time>2011-08-12T10:10:49Z</time>
      </trkpt>
      <trkpt lat="44.65563" lon="6.58812">
        <ele>876</ele>
        <time>2011-08-12T10:10:53Z</time>
      </trkpt>
      <trkpt lat="44.6555" lon="6.58795">
        <ele>876</ele>
        <time>2011-08-12T10:10:57Z</time>
      </trkpt>
      <trkpt lat="44.65535" lon="6.5878">
        <ele>877</ele>
        <time>2011-08-12T10:11:01Z</time>
      </trkpt>
      <trkpt lat="44.65513" lon="6.58757">
        <ele>877</ele>
        <time>2011-08-12T10:11:07Z</time>
      </trkpt>
      <trkpt lat="44.65495" lon="6.58737">
        <ele>877</ele>
        <time>2011-08-12T10:11:13Z</time>
      </trkpt>
      <trkpt lat="44.65463" lon="6.587">
        <ele>877</ele>
        <time>2011-08-12T10:11:24Z</time>
      </trkpt>
      <trkpt lat="44.6545" lon="6.58687">
        <ele>877</ele>
        <time>2011-08-12T10:11:28Z</time>
      </trkpt>
      <trkpt lat="44.65437" lon="6.58673">
        <ele>876</ele>
        <time>2011-08-12T10:11:32Z</time>
      </trkpt>
      <trkpt lat="44.65423" lon="6.58662">
        <ele>876</ele>
        <time>2011-08-12T10:11:36Z</time>
      </trkpt>
      <trkpt lat="44.65397" lon="6.5864">
        <ele>877</ele>
        <time>2011-08-12T10:11:46Z</time>
      </trkpt>
      <trkpt lat="44.65378" lon="6.58628">
        <ele>876</ele>
        <time>2011-08-12T10:11:52Z</time>
      </trkpt>
      <trkpt lat="44.65367" lon="6.58618">
        <ele>876</ele>
        <time>2011-08-12T10:11:56Z</time>
      </trkpt>
      <trkpt lat="44.65343" lon="6.586">
        <ele>875</ele>
        <time>2011-08-12T10:12:05Z</time>
      </trkpt>
      <trkpt lat="44.6531" lon="6.58575">
        <ele>876</ele>
        <time>2011-08-12T10:12:17Z</time>
      </trkpt>
      <trkpt lat="44.65275" lon="6.58547">
        <ele>877</ele>
        <time>2011-08-12T10:12:27Z</time>
      </trkpt>
      <trkpt lat="44.65262" lon="6.58533">
        <ele>877</ele>
        <time>2011-08-12T10:12:31Z</time>
      </trkpt>
      <trkpt lat="44.6525" lon="6.58517">
        <ele>877</ele>
        <time>2011-08-12T10:12:37Z</time>
      </trkpt>
      <trkpt lat="44.65233" lon="6.5851">
        <ele>878</ele>
        <time>2011-08-12T10:12:43Z</time>
      </trkpt>
      <trkpt lat="44.65213" lon="6.58502">
        <ele>878</ele>
        <time>2011-08-12T10:12:49Z</time>
      </trkpt>
      <trkpt lat="44.65197" lon="6.58493">
        <ele>878</ele>
        <time>2011-08-12T10:12:55Z</time>
      </trkpt>
      <trkpt lat="44.65182" lon="6.58483">
        <ele>879</ele>
        <time>2011-08-12T10:13:05Z</time>
      </trkpt>
      <trkpt lat="44.65168" lon="6.58472">
        <ele>879</ele>
        <time>2011-08-12T10:13:15Z</time>
      </trkpt>
      <trkpt lat="44.65157" lon="6.58455">
        <ele>879</ele>
        <time>2011-08-12T10:13:21Z</time>
      </trkpt>
      <trkpt lat="44.65142" lon="6.58442">
        <ele>879</ele>
        <time>2011-08-12T10:13:27Z</time>
      </trkpt>
      <trkpt lat="44.6513" lon="6.58425">
        <ele>878</ele>
        <time>2011-08-12T10:13:33Z</time>
      </trkpt>
      <trkpt lat="44.6511" lon="6.58398">
        <ele>878</ele>
        <time>2011-08-12T10:13:45Z</time>
      </trkpt>
      <trkpt lat="44.651" lon="6.58383">
        <ele>878</ele>
        <time>2011-08-12T10:13:51Z</time>
      </trkpt>
      <trkpt lat="44.6509" lon="6.58365">
        <ele>878</ele>
        <time>2011-08-12T10:13:59Z</time>
      </trkpt>
      <trkpt lat="44.65078" lon="6.58347">
        <ele>878</ele>
        <time>2011-08-12T10:14:05Z</time>
      </trkpt>
      <trkpt lat="44.65067" lon="6.5833">
        <ele>878</ele>
        <time>2011-08-12T10:14:11Z</time>
      </trkpt>
      <trkpt lat="44.65057" lon="6.58307">
        <ele>878</ele>
        <time>2011-08-12T10:14:17Z</time>
      </trkpt>
      <trkpt lat="44.6505" lon="6.58285">
        <ele>878</ele>
        <time>2011-08-12T10:14:21Z</time>
      </trkpt>
      <trkpt lat="44.65045" lon="6.58255">
        <ele>879</ele>
        <time>2011-08-12T10:14:25Z</time>
      </trkpt>
      <trkpt lat="44.65038" lon="6.58222">
        <ele>878</ele>
        <time>2011-08-12T10:14:29Z</time>
      </trkpt>
      <trkpt lat="44.65018" lon="6.5813">
        <ele>877</ele>
        <time>2011-08-12T10:14:38Z</time>
      </trkpt>
      <trkpt lat="44.65013" lon="6.5811">
        <ele>876</ele>
        <time>2011-08-12T10:14:40Z</time>
      </trkpt>
      <trkpt lat="44.6501" lon="6.58077">
        <ele>875</ele>
        <time>2011-08-12T10:14:44Z</time>
      </trkpt>
      <trkpt lat="44.65022" lon="6.58057">
        <ele>874</ele>
        <time>2011-08-12T10:14:48Z</time>
      </trkpt>
      <trkpt lat="44.6504" lon="6.5803">
        <ele>873</ele>
        <time>2011-08-12T10:14:56Z</time>
      </trkpt>
      <trkpt lat="44.65052" lon="6.58012">
        <ele>873</ele>
        <time>2011-08-12T10:15:02Z</time>
      </trkpt>
      <trkpt lat="44.6507" lon="6.57983">
        <ele>880</ele>
        <time>2011-08-12T10:15:12Z</time>
      </trkpt>
      <trkpt lat="44.65082" lon="6.57968">
        <ele>884</ele>
        <time>2011-08-12T10:15:20Z</time>
      </trkpt>
      <trkpt lat="44.6509" lon="6.5795">
        <ele>890</ele>
        <time>2011-08-12T10:15:28Z</time>
      </trkpt>
      <trkpt lat="44.65082" lon="6.57932">
        <ele>895</ele>
        <time>2011-08-12T10:15:38Z</time>
      </trkpt>
      <trkpt lat="44.65072" lon="6.57918">
        <ele>897</ele>
        <time>2011-08-12T10:15:48Z</time>
      </trkpt>
      <trkpt lat="44.65062" lon="6.57902">
        <ele>899</ele>
        <time>2011-08-12T10:16:00Z</time>
      </trkpt>
      <trkpt lat="44.6505" lon="6.57887">
        <ele>900</ele>
        <time>2011-08-12T10:16:10Z</time>
      </trkpt>
      <trkpt lat="44.65037" lon="6.57873">
        <ele>899</ele>
        <time>2011-08-12T10:16:19Z</time>
      </trkpt>
      <trkpt lat="44.65037" lon="6.57852">
        <ele>903</ele>
        <time>2011-08-12T10:17:24Z</time>
      </trkpt>
      <trkpt lat="44.65028" lon="6.57835">
        <ele>903</ele>
        <time>2011-08-12T10:17:34Z</time>
      </trkpt>
      <trkpt lat="44.65018" lon="6.57818">
        <ele>903</ele>
        <time>2011-08-12T10:17:44Z</time>
      </trkpt>
      <trkpt lat="44.65003" lon="6.57802">
        <ele>902</ele>
        <time>2011-08-12T10:17:52Z</time>
      </trkpt>
      <trkpt lat="44.6499" lon="6.57785">
        <ele>902</ele>
        <time>2011-08-12T10:18:03Z</time>
      </trkpt>
      <trkpt lat="44.64978" lon="6.5777">
        <ele>901</ele>
        <time>2011-08-12T10:18:11Z</time>
      </trkpt>
      <trkpt lat="44.64967" lon="6.57758">
        <ele>900</ele>
        <time>2011-08-12T10:18:19Z</time>
      </trkpt>
      <trkpt lat="44.64953" lon="6.57748">
        <ele>899</ele>
        <time>2011-08-12T10:18:27Z</time>
      </trkpt>
      <trkpt lat="44.64935" lon="6.57732">
        <ele>897</ele>
        <time>2011-08-12T10:18:37Z</time>
      </trkpt>
      <trkpt lat="44.64925" lon="6.57718">
        <ele>897</ele>
        <time>2011-08-12T10:18:43Z</time>
      </trkpt>
      <trkpt lat="44.64913" lon="6.577">
        <ele>897</ele>
        <time>2011-08-12T10:18:51Z</time>
      </trkpt>
      <trkpt lat="44.64905" lon="6.5768">
        <ele>899</ele>
        <time>2011-08-12T10:18:59Z</time>
      </trkpt>
      <trkpt lat="44.64892" lon="6.5765">
        <ele>902</ele>
        <time>2011-08-12T10:19:11Z</time>
      </trkpt>
      <trkpt lat="44.64888" lon="6.57628">
        <ele>905</ele>
        <time>2011-08-12T10:19:19Z</time>
      </trkpt>
      <trkpt lat="44.64887" lon="6.57595">
        <ele>911</ele>
        <time>2011-08-12T10:19:31Z</time>
      </trkpt>
      <trkpt lat="44.64882" lon="6.57575">
        <ele>914</ele>
        <time>2011-08-12T10:19:39Z</time>
      </trkpt>
      <trkpt lat="44.64873" lon="6.57557">
        <ele>915</ele>
        <time>2011-08-12T10:19:47Z</time>
      </trkpt>
      <trkpt lat="44.64862" lon="6.57533">
        <ele>914</ele>
        <time>2011-08-12T10:19:58Z</time>
      </trkpt>
      <trkpt lat="44.64858" lon="6.5751">
        <ele>916</ele>
        <time>2011-08-12T10:20:08Z</time>
      </trkpt>
      <trkpt lat="44.64865" lon="6.5749">
        <ele>920</ele>
        <time>2011-08-12T10:20:16Z</time>
      </trkpt>
      <trkpt lat="44.64878" lon="6.5748">
        <ele>925</ele>
        <time>2011-08-12T10:20:24Z</time>
      </trkpt>
      <trkpt lat="44.64892" lon="6.57492">
        <ele>928</ele>
        <time>2011-08-12T10:20:32Z</time>
      </trkpt>
      <trkpt lat="44.64903" lon="6.57505">
        <ele>930</ele>
        <time>2011-08-12T10:20:38Z</time>
      </trkpt>
      <trkpt lat="44.64923" lon="6.57528">
        <ele>931</ele>
        <time>2011-08-12T10:20:49Z</time>
      </trkpt>
      <trkpt lat="44.64938" lon="6.57545">
        <ele>932</ele>
        <time>2011-08-12T10:20:57Z</time>
      </trkpt>
      <trkpt lat="44.64952" lon="6.57562">
        <ele>933</ele>
        <time>2011-08-12T10:21:05Z</time>
      </trkpt>
      <trkpt lat="44.64965" lon="6.57578">
        <ele>932</ele>
        <time>2011-08-12T10:21:13Z</time>
      </trkpt>
      <trkpt lat="44.64983" lon="6.576">
        <ele>933</ele>
        <time>2011-08-12T10:21:23Z</time>
      </trkpt>
      <trkpt lat="44.64998" lon="6.57622">
        <ele>933</ele>
        <time>2011-08-12T10:21:33Z</time>
      </trkpt>
      <trkpt lat="44.6501" lon="6.57637">
        <ele>934</ele>
        <time>2011-08-12T10:21:40Z</time>
      </trkpt>
      <trkpt lat="44.65018" lon="6.57653">
        <ele>933</ele>
        <time>2011-08-12T10:21:48Z</time>
      </trkpt>
      <trkpt lat="44.6503" lon="6.5767">
        <ele>934</ele>
        <time>2011-08-12T10:21:56Z</time>
      </trkpt>
      <trkpt lat="44.65042" lon="6.57683">
        <ele>934</ele>
        <time>2011-08-12T10:22:04Z</time>
      </trkpt>
      <trkpt lat="44.65053" lon="6.57698">
        <ele>934</ele>
        <time>2011-08-12T10:22:12Z</time>
      </trkpt>
      <trkpt lat="44.65065" lon="6.57712">
        <ele>935</ele>
        <time>2011-08-12T10:24:08Z</time>
      </trkpt>
      <trkpt lat="44.65082" lon="6.57712">
        <ele>939</ele>
        <time>2011-08-12T10:24:18Z</time>
      </trkpt>
      <trkpt lat="44.65097" lon="6.57705">
        <ele>944</ele>
        <time>2011-08-12T10:24:28Z</time>
      </trkpt>
      <trkpt lat="44.65112" lon="6.57712">
        <ele>947</ele>
        <time>2011-08-12T10:24:36Z</time>
      </trkpt>
      <trkpt lat="44.65125" lon="6.5772">
        <ele>949</ele>
        <time>2011-08-12T10:24:44Z</time>
      </trkpt>
      <trkpt lat="44.65138" lon="6.57723">
        <ele>952</ele>
        <time>2011-08-12T10:24:52Z</time>
      </trkpt>
      <trkpt lat="44.65153" lon="6.57725">
        <ele>956</ele>
        <time>2011-08-12T10:25:00Z</time>
      </trkpt>
      <trkpt lat="44.65168" lon="6.57733">
        <ele>958</ele>
        <time>2011-08-12T10:25:09Z</time>
      </trkpt>
      <trkpt lat="44.65182" lon="6.57745">
        <ele>960</ele>
        <time>2011-08-12T10:25:17Z</time>
      </trkpt>
      <trkpt lat="44.65193" lon="6.57762">
        <ele>960</ele>
        <time>2011-08-12T10:25:25Z</time>
      </trkpt>
      <trkpt lat="44.65202" lon="6.57778">
        <ele>960</ele>
        <time>2011-08-12T10:25:33Z</time>
      </trkpt>
      <trkpt lat="44.65217" lon="6.57803">
        <ele>962</ele>
        <time>2011-08-12T10:25:45Z</time>
      </trkpt>
      <trkpt lat="44.65222" lon="6.57823">
        <ele>961</ele>
        <time>2011-08-12T10:25:53Z</time>
      </trkpt>
      <trkpt lat="44.65227" lon="6.57843">
        <ele>960</ele>
        <time>2011-08-12T10:26:01Z</time>
      </trkpt>
      <trkpt lat="44.65242" lon="6.57852">
        <ele>963</ele>
        <time>2011-08-12T10:26:09Z</time>
      </trkpt>
      <trkpt lat="44.65255" lon="6.57863">
        <ele>965</ele>
        <time>2011-08-12T10:26:19Z</time>
      </trkpt>
      <trkpt lat="44.65263" lon="6.57878">
        <ele>965</ele>
        <time>2011-08-12T10:26:29Z</time>
      </trkpt>
      <trkpt lat="44.65272" lon="6.57895">
        <ele>966</ele>
        <time>2011-08-12T10:26:39Z</time>
      </trkpt>
      <trkpt lat="44.6528" lon="6.57912">
        <ele>967</ele>
        <time>2011-08-12T10:26:49Z</time>
      </trkpt>
      <trkpt lat="44.65292" lon="6.57928">
        <ele>968</ele>
        <time>2011-08-12T10:27:01Z</time>
      </trkpt>
      <trkpt lat="44.65303" lon="6.57938">
        <ele>969</ele>
        <time>2011-08-12T10:27:14Z</time>
      </trkpt>
      <trkpt lat="44.65317" lon="6.57935">
        <ele>972</ele>
        <time>2011-08-12T10:27:42Z</time>
      </trkpt>
      <trkpt lat="44.65332" lon="6.57937">
        <ele>973</ele>
        <time>2011-08-12T10:28:22Z</time>
      </trkpt>
      <trkpt lat="44.65347" lon="6.57933">
        <ele>975</ele>
        <time>2011-08-12T10:28:34Z</time>
      </trkpt>
      <trkpt lat="44.65363" lon="6.57927">
        <ele>977</ele>
        <time>2011-08-12T10:28:52Z</time>
      </trkpt>
      <trkpt lat="44.6538" lon="6.57922">
        <ele>979</ele>
        <time>2011-08-12T10:29:10Z</time>
      </trkpt>
      <trkpt lat="44.65395" lon="6.5792">
        <ele>980</ele>
        <time>2011-08-12T10:29:32Z</time>
      </trkpt>
      <trkpt lat="44.6541" lon="6.57923">
        <ele>981</ele>
        <time>2011-08-12T10:29:50Z</time>
      </trkpt>
      <trkpt lat="44.65425" lon="6.57927">
        <ele>982</ele>
        <time>2011-08-12T10:30:07Z</time>
      </trkpt>
      <trkpt lat="44.6544" lon="6.57928">
        <ele>984</ele>
        <time>2011-08-12T10:30:29Z</time>
      </trkpt>
      <trkpt lat="44.65445" lon="6.57948">
        <ele>982</ele>
        <time>2011-08-12T10:30:41Z</time>
      </trkpt>
      <trkpt lat="44.6545" lon="6.57967">
        <ele>980</ele>
        <time>2011-08-12T10:30:51Z</time>
      </trkpt>
      <trkpt lat="44.65465" lon="6.57962">
        <ele>983</ele>
        <time>2011-08-12T10:31:13Z</time>
      </trkpt>
      <trkpt lat="44.65478" lon="6.57952">
        <ele>986</ele>
        <time>2011-08-12T10:31:25Z</time>
      </trkpt>
      <trkpt lat="44.65492" lon="6.57943">
        <ele>989</ele>
        <time>2011-08-12T10:31:38Z</time>
      </trkpt>
      <trkpt lat="44.65503" lon="6.5793">
        <ele>992</ele>
        <time>2011-08-12T10:31:56Z</time>
      </trkpt>
      <trkpt lat="44.65513" lon="6.57917">
        <ele>996</ele>
        <time>2011-08-12T10:32:14Z</time>
      </trkpt>
      <trkpt lat="44.65525" lon="6.57905">
        <ele>1000</ele>
        <time>2011-08-12T10:32:34Z</time>
      </trkpt>
      <trkpt lat="44.65538" lon="6.57888">
        <ele>1006</ele>
        <time>2011-08-12T10:32:52Z</time>
      </trkpt>
      <trkpt lat="44.65555" lon="6.57895">
        <ele>1009</ele>
        <time>2011-08-12T10:35:10Z</time>
      </trkpt>
      <trkpt lat="44.65568" lon="6.57905">
        <ele>1009</ele>
        <time>2011-08-12T10:35:19Z</time>
      </trkpt>
      <trkpt lat="44.6558" lon="6.5792">
        <ele>1009</ele>
        <time>2011-08-12T10:35:27Z</time>
      </trkpt>
      <trkpt lat="44.65593" lon="6.57933">
        <ele>1010</ele>
        <time>2011-08-12T10:35:37Z</time>
      </trkpt>
      <trkpt lat="44.65607" lon="6.57948">
        <ele>1010</ele>
        <time>2011-08-12T10:35:49Z</time>
      </trkpt>
      <trkpt lat="44.65618" lon="6.57965">
        <ele>1009</ele>
        <time>2011-08-12T10:35:57Z</time>
      </trkpt>
      <trkpt lat="44.65635" lon="6.57972">
        <ele>1010</ele>
        <time>2011-08-12T10:36:07Z</time>
      </trkpt>
      <trkpt lat="44.6565" lon="6.57973">
        <ele>1011</ele>
        <time>2011-08-12T10:36:13Z</time>
      </trkpt>
      <trkpt lat="44.6567" lon="6.5798">
        <ele>1012</ele>
        <time>2011-08-12T10:36:19Z</time>
      </trkpt>
      <trkpt lat="44.65688" lon="6.5799">
        <ele>1013</ele>
        <time>2011-08-12T10:36:23Z</time>
      </trkpt>
      <trkpt lat="44.65707" lon="6.58002">
        <ele>1014</ele>
        <time>2011-08-12T10:36:28Z</time>
      </trkpt>
      <trkpt lat="44.65723" lon="6.58017">
        <ele>1014</ele>
        <time>2011-08-12T10:36:32Z</time>
      </trkpt>
      <trkpt lat="44.65735" lon="6.58033">
        <ele>1015</ele>
        <time>2011-08-12T10:36:38Z</time>
      </trkpt>
      <trkpt lat="44.65743" lon="6.58053">
        <ele>1014</ele>
        <time>2011-08-12T10:36:44Z</time>
      </trkpt>
      <trkpt lat="44.65752" lon="6.58077">
        <ele>1014</ele>
        <time>2011-08-12T10:36:50Z</time>
      </trkpt>
      <trkpt lat="44.65758" lon="6.58098">
        <ele>1015</ele>
        <time>2011-08-12T10:36:56Z</time>
      </trkpt>
      <trkpt lat="44.65765" lon="6.58123">
        <ele>1015</ele>
        <time>2011-08-12T10:37:02Z</time>
      </trkpt>
      <trkpt lat="44.6577" lon="6.58147">
        <ele>1016</ele>
        <time>2011-08-12T10:37:08Z</time>
      </trkpt>
      <trkpt lat="44.6578" lon="6.58197">
        <ele>1016</ele>
        <time>2011-08-12T10:37:27Z</time>
      </trkpt>
      <trkpt lat="44.65762" lon="6.58218">
        <ele>1011</ele>
        <time>2011-08-12T10:37:45Z</time>
      </trkpt>
      <trkpt lat="44.65757" lon="6.58238">
        <ele>1009</ele>
        <time>2011-08-12T10:37:49Z</time>
      </trkpt>
      <trkpt lat="44.65758" lon="6.58263">
        <ele>1008</ele>
        <time>2011-08-12T10:37:53Z</time>
      </trkpt>
      <trkpt lat="44.65768" lon="6.58282">
        <ele>1007</ele>
        <time>2011-08-12T10:37:57Z</time>
      </trkpt>
      <trkpt lat="44.65782" lon="6.58293">
        <ele>1008</ele>
        <time>2011-08-12T10:38:01Z</time>
      </trkpt>
      <trkpt lat="44.65792" lon="6.58312">
        <ele>1007</ele>
        <time>2011-08-12T10:38:07Z</time>
      </trkpt>
      <trkpt lat="44.65805" lon="6.58325">
        <ele>1007</ele>
        <time>2011-08-12T10:38:13Z</time>
      </trkpt>
      <trkpt lat="44.65825" lon="6.58338">
        <ele>1008</ele>
        <time>2011-08-12T10:38:20Z</time>
      </trkpt>
      <trkpt lat="44.65838" lon="6.58348">
        <ele>1008</ele>
        <time>2011-08-12T10:38:26Z</time>
      </trkpt>
      <trkpt lat="44.65855" lon="6.58347">
        <ele>1011</ele>
        <time>2011-08-12T10:38:34Z</time>
      </trkpt>
      <trkpt lat="44.65868" lon="6.5834">
        <ele>1014</ele>
        <time>2011-08-12T10:38:40Z</time>
      </trkpt>
      <trkpt lat="44.65882" lon="6.58327">
        <ele>1017</ele>
        <time>2011-08-12T10:38:48Z</time>
      </trkpt>
      <trkpt lat="44.65892" lon="6.58313">
        <ele>1021</ele>
        <time>2011-08-12T10:38:56Z</time>
      </trkpt>
      <trkpt lat="44.65903" lon="6.58298">
        <ele>1024</ele>
        <time>2011-08-12T10:39:05Z</time>
      </trkpt>
      <trkpt lat="44.65915" lon="6.58288">
        <ele>1028</ele>
        <time>2011-08-12T10:39:15Z</time>
      </trkpt>
      <trkpt lat="44.6593" lon="6.58292">
        <ele>1030</ele>
        <time>2011-08-12T10:39:25Z</time>
      </trkpt>
      <trkpt lat="44.65942" lon="6.58302">
        <ele>1032</ele>
        <time>2011-08-12T10:39:35Z</time>
      </trkpt>
      <trkpt lat="44.65958" lon="6.58317">
        <ele>1034</ele>
        <time>2011-08-12T10:39:47Z</time>
      </trkpt>
      <trkpt lat="44.65972" lon="6.58328">
        <ele>1036</ele>
        <time>2011-08-12T10:39:57Z</time>
      </trkpt>
      <trkpt lat="44.65988" lon="6.58343">
        <ele>1037</ele>
        <time>2011-08-12T10:40:09Z</time>
      </trkpt>
      <trkpt lat="44.66002" lon="6.58358">
        <ele>1038</ele>
        <time>2011-08-12T10:40:20Z</time>
      </trkpt>
      <trkpt lat="44.66013" lon="6.5837">
        <ele>1038</ele>
        <time>2011-08-12T10:40:30Z</time>
      </trkpt>
      <trkpt lat="44.6603" lon="6.58383">
        <ele>1040</ele>
        <time>2011-08-12T10:40:42Z</time>
      </trkpt>
      <trkpt lat="44.66042" lon="6.58398">
        <ele>1040</ele>
        <time>2011-08-12T10:40:51Z</time>
      </trkpt>
      <trkpt lat="44.66052" lon="6.58413">
        <ele>1040</ele>
        <time>2011-08-12T10:40:59Z</time>
      </trkpt>
      <trkpt lat="44.66062" lon="6.5843">
        <ele>1040</ele>
        <time>2011-08-12T10:41:09Z</time>
      </trkpt>
      <trkpt lat="44.66072" lon="6.58445">
        <ele>1040</ele>
        <time>2011-08-12T10:43:52Z</time>
      </trkpt>
      <trkpt lat="44.66095" lon="6.58478">
        <ele>1042</ele>
        <time>2011-08-12T10:44:12Z</time>
      </trkpt>
      <trkpt lat="44.66118" lon="6.58512">
        <ele>1044</ele>
        <time>2011-08-12T10:44:33Z</time>
      </trkpt>
      <trkpt lat="44.66132" lon="6.58522">
        <ele>1046</ele>
        <time>2011-08-12T10:44:41Z</time>
      </trkpt>
      <trkpt lat="44.66148" lon="6.58532">
        <ele>1050</ele>
        <time>2011-08-12T10:44:52Z</time>
      </trkpt>
      <trkpt lat="44.66163" lon="6.58538">
        <ele>1052</ele>
        <time>2011-08-12T10:45:02Z</time>
      </trkpt>
      <trkpt lat="44.66177" lon="6.58542">
        <ele>1055</ele>
        <time>2011-08-12T10:45:10Z</time>
      </trkpt>
      <trkpt lat="44.66193" lon="6.58545">
        <ele>1058</ele>
        <time>2011-08-12T10:45:20Z</time>
      </trkpt>
      <trkpt lat="44.66207" lon="6.58553">
        <ele>1059</ele>
        <time>2011-08-12T10:45:27Z</time>
      </trkpt>
      <trkpt lat="44.6622" lon="6.58562">
        <ele>1060</ele>
        <time>2011-08-12T10:45:35Z</time>
      </trkpt>
      <trkpt lat="44.66235" lon="6.5857">
        <ele>1062</ele>
        <time>2011-08-12T10:45:43Z</time>
      </trkpt>
      <trkpt lat="44.6625" lon="6.58582">
        <ele>1063</ele>
        <time>2011-08-12T10:45:51Z</time>
      </trkpt>
      <trkpt lat="44.6626" lon="6.586">
        <ele>1062</ele>
        <time>2011-08-12T10:46:00Z</time>
      </trkpt>
      <trkpt lat="44.66283" lon="6.58643">
        <ele>1058</ele>
        <time>2011-08-12T10:46:18Z</time>
      </trkpt>
      <trkpt lat="44.66293" lon="6.58657">
        <ele>1058</ele>
        <time>2011-08-12T10:46:24Z</time>
      </trkpt>
      <trkpt lat="44.66307" lon="6.58675">
        <ele>1057</ele>
        <time>2011-08-12T10:46:32Z</time>
      </trkpt>
      <trkpt lat="44.66318" lon="6.58685">
        <ele>1058</ele>
        <time>2011-08-12T10:46:38Z</time>
      </trkpt>
      <trkpt lat="44.66333" lon="6.58697">
        <ele>1059</ele>
        <time>2011-08-12T10:46:46Z</time>
      </trkpt>
      <trkpt lat="44.66347" lon="6.58705">
        <ele>1061</ele>
        <time>2011-08-12T10:46:53Z</time>
      </trkpt>
      <trkpt lat="44.6636" lon="6.58712">
        <ele>1063</ele>
        <time>2011-08-12T10:46:59Z</time>
      </trkpt>
      <trkpt lat="44.66375" lon="6.58717">
        <ele>1065</ele>
        <time>2011-08-12T10:47:07Z</time>
      </trkpt>
      <trkpt lat="44.66388" lon="6.5872">
        <ele>1068</ele>
        <time>2011-08-12T10:47:15Z</time>
      </trkpt>
      <trkpt lat="44.66403" lon="6.58718">
        <ele>1072</ele>
        <time>2011-08-12T10:47:24Z</time>
      </trkpt>
      <trkpt lat="44.66417" lon="6.58722">
        <ele>1074</ele>
        <time>2011-08-12T10:47:32Z</time>
      </trkpt>
      <trkpt lat="44.66433" lon="6.58722">
        <ele>1078</ele>
        <time>2011-08-12T10:47:42Z</time>
      </trkpt>
      <trkpt lat="44.6645" lon="6.58723">
        <ele>1081</ele>
        <time>2011-08-12T10:47:52Z</time>
      </trkpt>
      <trkpt lat="44.66475" lon="6.58733">
        <ele>1083</ele>
        <time>2011-08-12T10:48:09Z</time>
      </trkpt>
      <trkpt lat="44.66485" lon="6.58753">
        <ele>1078</ele>
        <time>2011-08-12T10:48:17Z</time>
      </trkpt>
      <trkpt lat="44.66502" lon="6.58767">
        <ele>1078</ele>
        <time>2011-08-12T10:48:23Z</time>
      </trkpt>
      <trkpt lat="44.66515" lon="6.5877">
        <ele>1080</ele>
        <time>2011-08-12T10:48:27Z</time>
      </trkpt>
      <trkpt lat="44.66537" lon="6.58775">
        <ele>1082</ele>
        <time>2011-08-12T10:48:35Z</time>
      </trkpt>
      <trkpt lat="44.66552" lon="6.58777">
        <ele>1084</ele>
        <time>2011-08-12T10:48:42Z</time>
      </trkpt>
      <trkpt lat="44.66547" lon="6.58758">
        <ele>1089</ele>
        <time>2011-08-12T10:49:22Z</time>
      </trkpt>
      <trkpt lat="44.66532" lon="6.58753">
        <ele>1088</ele>
        <time>2011-08-12T10:49:29Z</time>
      </trkpt>
      <trkpt lat="44.66512" lon="6.58748">
        <ele>1086</ele>
        <time>2011-08-12T10:49:39Z</time>
      </trkpt>
      <trkpt lat="44.66498" lon="6.58733">
        <ele>1089</ele>
        <time>2011-08-12T10:49:47Z</time>
      </trkpt>
      <trkpt lat="44.66487" lon="6.58718">
        <ele>1091</ele>
        <time>2011-08-12T10:49:56Z</time>
      </trkpt>
      <trkpt lat="44.66472" lon="6.58715">
        <ele>1089</ele>
        <time>2011-08-12T10:50:02Z</time>
      </trkpt>
      <trkpt lat="44.6646" lon="6.58703">
        <ele>1091</ele>
        <time>2011-08-12T10:50:08Z</time>
      </trkpt>
      <trkpt lat="44.6645" lon="6.5869">
        <ele>1094</ele>
        <time>2011-08-12T10:50:14Z</time>
      </trkpt>
      <trkpt lat="44.66442" lon="6.58673">
        <ele>1098</ele>
        <time>2011-08-12T10:50:22Z</time>
      </trkpt>
      <trkpt lat="44.66427" lon="6.58663">
        <ele>1097</ele>
        <time>2011-08-12T10:50:32Z</time>
      </trkpt>
      <trkpt lat="44.66408" lon="6.58657">
        <ele>1095</ele>
        <time>2011-08-12T10:50:41Z</time>
      </trkpt>
      <trkpt lat="44.66397" lon="6.58647">
        <ele>1094</ele>
        <time>2011-08-12T10:50:47Z</time>
      </trkpt>
      <trkpt lat="44.66387" lon="6.5863">
        <ele>1096</ele>
        <time>2011-08-12T10:50:55Z</time>
      </trkpt>
      <trkpt lat="44.66373" lon="6.5861">
        <ele>1098</ele>
        <time>2011-08-12T10:51:03Z</time>
      </trkpt>
      <trkpt lat="44.66363" lon="6.58588">
        <ele>1100</ele>
        <time>2011-08-12T10:51:09Z</time>
      </trkpt>
      <trkpt lat="44.66357" lon="6.5857">
        <ele>1102</ele>
        <time>2011-08-12T10:51:14Z</time>
      </trkpt>
      <trkpt lat="44.6635" lon="6.5855">
        <ele>1105</ele>
        <time>2011-08-12T10:51:20Z</time>
      </trkpt>
      <trkpt lat="44.66342" lon="6.5853">
        <ele>1107</ele>
        <time>2011-08-12T10:51:28Z</time>
      </trkpt>
      <trkpt lat="44.6633" lon="6.58517">
        <ele>1107</ele>
        <time>2011-08-12T10:51:35Z</time>
      </trkpt>
      <trkpt lat="44.66315" lon="6.58498">
        <ele>1106</ele>
        <time>2011-08-12T10:51:45Z</time>
      </trkpt>
      <trkpt lat="44.66303" lon="6.58485">
        <ele>1105</ele>
        <time>2011-08-12T10:51:51Z</time>
      </trkpt>
      <trkpt lat="44.66295" lon="6.58468">
        <ele>1105</ele>
        <time>2011-08-12T10:51:57Z</time>
      </trkpt>
      <trkpt lat="44.6629" lon="6.58448">
        <ele>1106</ele>
        <time>2011-08-12T10:52:04Z</time>
      </trkpt>
      <trkpt lat="44.66292" lon="6.58428">
        <ele>1111</ele>
        <time>2011-08-12T10:52:10Z</time>
      </trkpt>
      <trkpt lat="44.66295" lon="6.58407">
        <ele>1115</ele>
        <time>2011-08-12T10:52:16Z</time>
      </trkpt>
      <trkpt lat="44.66298" lon="6.58387">
        <ele>1118</ele>
        <time>2011-08-12T10:52:22Z</time>
      </trkpt>
      <trkpt lat="44.66295" lon="6.58365">
        <ele>1119</ele>
        <time>2011-08-12T10:52:30Z</time>
      </trkpt>
      <trkpt lat="44.66288" lon="6.58343">
        <ele>1119</ele>
        <time>2011-08-12T10:52:39Z</time>
      </trkpt>
      <trkpt lat="44.66283" lon="6.58323">
        <ele>1120</ele>
        <time>2011-08-12T10:52:49Z</time>
      </trkpt>
      <trkpt lat="44.66277" lon="6.58297">
        <ele>1122</ele>
        <time>2011-08-12T10:53:01Z</time>
      </trkpt>
      <trkpt lat="44.66267" lon="6.58275">
        <ele>1124</ele>
        <time>2011-08-12T10:53:12Z</time>
      </trkpt>
      <trkpt lat="44.66257" lon="6.5826">
        <ele>1125</ele>
        <time>2011-08-12T10:53:20Z</time>
      </trkpt>
      <trkpt lat="44.66242" lon="6.58248">
        <ele>1124</ele>
        <time>2011-08-12T10:53:28Z</time>
      </trkpt>
      <trkpt lat="44.6623" lon="6.58235">
        <ele>1125</ele>
        <time>2011-08-12T10:53:36Z</time>
      </trkpt>
      <trkpt lat="44.6622" lon="6.5822">
        <ele>1125</ele>
        <time>2011-08-12T10:53:45Z</time>
      </trkpt>
      <trkpt lat="44.66207" lon="6.58202">
        <ele>1125</ele>
        <time>2011-08-12T10:53:55Z</time>
      </trkpt>
      <trkpt lat="44.6622" lon="6.58195">
        <ele>1129</ele>
        <time>2011-08-12T10:54:08Z</time>
      </trkpt>
      <trkpt lat="44.66232" lon="6.5821">
        <ele>1130</ele>
        <time>2011-08-12T10:54:16Z</time>
      </trkpt>
      <trkpt lat="44.66243" lon="6.5822">
        <ele>1131</ele>
        <time>2011-08-12T10:54:24Z</time>
      </trkpt>
      <trkpt lat="44.66258" lon="6.58227">
        <ele>1134</ele>
        <time>2011-08-12T10:54:32Z</time>
      </trkpt>
      <trkpt lat="44.6628" lon="6.58237">
        <ele>1139</ele>
        <time>2011-08-12T10:54:45Z</time>
      </trkpt>
      <trkpt lat="44.66295" lon="6.58247">
        <ele>1141</ele>
        <time>2011-08-12T10:54:53Z</time>
      </trkpt>
      <trkpt lat="44.66307" lon="6.58267">
        <ele>1141</ele>
        <time>2011-08-12T10:55:02Z</time>
      </trkpt>
      <trkpt lat="44.66317" lon="6.58285">
        <ele>1140</ele>
        <time>2011-08-12T10:55:10Z</time>
      </trkpt>
      <trkpt lat="44.6633" lon="6.58297">
        <ele>1143</ele>
        <time>2011-08-12T10:55:18Z</time>
      </trkpt>
      <trkpt lat="44.66343" lon="6.58313">
        <ele>1146</ele>
        <time>2011-08-12T10:55:28Z</time>
      </trkpt>
      <trkpt lat="44.66357" lon="6.58327">
        <ele>1149</ele>
        <time>2011-08-12T10:55:38Z</time>
      </trkpt>
      <trkpt lat="44.66372" lon="6.58338">
        <ele>1153</ele>
        <time>2011-08-12T10:55:49Z</time>
      </trkpt>
      <trkpt lat="44.66385" lon="6.58352">
        <ele>1155</ele>
        <time>2011-08-12T10:55:59Z</time>
      </trkpt>
      <trkpt lat="44.66397" lon="6.58367">
        <ele>1156</ele>
        <time>2011-08-12T10:56:08Z</time>
      </trkpt>
      <trkpt lat="44.66408" lon="6.58383">
        <ele>1157</ele>
        <time>2011-08-12T10:56:18Z</time>
      </trkpt>
      <trkpt lat="44.66428" lon="6.58418">
        <ele>1157</ele>
        <time>2011-08-12T10:56:37Z</time>
      </trkpt>
      <trkpt lat="44.66438" lon="6.58433">
        <ele>1158</ele>
        <time>2011-08-12T10:56:46Z</time>
      </trkpt>
      <trkpt lat="44.66448" lon="6.58448">
        <ele>1158</ele>
        <time>2011-08-12T10:56:54Z</time>
      </trkpt>
      <trkpt lat="44.6646" lon="6.5846">
        <ele>1159</ele>
        <time>2011-08-12T10:57:03Z</time>
      </trkpt>
      <trkpt lat="44.66473" lon="6.58473">
        <ele>1160</ele>
        <time>2011-08-12T10:57:12Z</time>
      </trkpt>
      <trkpt lat="44.66485" lon="6.58483">
        <ele>1161</ele>
        <time>2011-08-12T10:57:20Z</time>
      </trkpt>
      <trkpt lat="44.66497" lon="6.58493">
        <ele>1162</ele>
        <time>2011-08-12T10:57:28Z</time>
      </trkpt>
      <trkpt lat="44.6651" lon="6.58508">
        <ele>1161</ele>
        <time>2011-08-12T10:57:37Z</time>
      </trkpt>
      <trkpt lat="44.66522" lon="6.58523">
        <ele>1160</ele>
        <time>2011-08-12T10:57:47Z</time>
      </trkpt>
      <trkpt lat="44.66535" lon="6.58533">
        <ele>1161</ele>
        <time>2011-08-12T10:57:57Z</time>
      </trkpt>
      <trkpt lat="44.6655" lon="6.58538">
        <ele>1163</ele>
        <time>2011-08-12T11:00:54Z</time>
      </trkpt>
      <trkpt lat="44.66557" lon="6.58522">
        <ele>1170</ele>
        <time>2011-08-12T11:01:04Z</time>
      </trkpt>
      <trkpt lat="44.66543" lon="6.58513">
        <ele>1169</ele>
        <time>2011-08-12T11:01:12Z</time>
      </trkpt>
      <trkpt lat="44.66525" lon="6.58505">
        <ele>1166</ele>
        <time>2011-08-12T11:01:21Z</time>
      </trkpt>
      <trkpt lat="44.66513" lon="6.58487">
        <ele>1168</ele>
        <time>2011-08-12T11:01:29Z</time>
      </trkpt>
      <trkpt lat="44.66507" lon="6.58467">
        <ele>1172</ele>
        <time>2011-08-12T11:01:37Z</time>
      </trkpt>
      <trkpt lat="44.66497" lon="6.58448">
        <ele>1174</ele>
        <time>2011-08-12T11:01:45Z</time>
      </trkpt>
      <trkpt lat="44.66487" lon="6.58435">
        <ele>1174</ele>
        <time>2011-08-12T11:01:52Z</time>
      </trkpt>
      <trkpt lat="44.66478" lon="6.58418">
        <ele>1176</ele>
        <time>2011-08-12T11:02:00Z</time>
      </trkpt>
      <trkpt lat="44.6647" lon="6.58402">
        <ele>1177</ele>
        <time>2011-08-12T11:02:08Z</time>
      </trkpt>
      <trkpt lat="44.66465" lon="6.58382">
        <ele>1180</ele>
        <time>2011-08-12T11:02:16Z</time>
      </trkpt>
      <trkpt lat="44.6646" lon="6.58363">
        <ele>1182</ele>
        <time>2011-08-12T11:02:24Z</time>
      </trkpt>
      <trkpt lat="44.66452" lon="6.58345">
        <ele>1183</ele>
        <time>2011-08-12T11:02:33Z</time>
      </trkpt>
      <trkpt lat="44.66443" lon="6.5833">
        <ele>1183</ele>
        <time>2011-08-12T11:02:39Z</time>
      </trkpt>
      <trkpt lat="44.66435" lon="6.58312">
        <ele>1184</ele>
        <time>2011-08-12T11:02:47Z</time>
      </trkpt>
      <trkpt lat="44.66428" lon="6.58293">
        <ele>1185</ele>
        <time>2011-08-12T11:02:55Z</time>
      </trkpt>
      <trkpt lat="44.6642" lon="6.5827">
        <ele>1186</ele>
        <time>2011-08-12T11:03:05Z</time>
      </trkpt>
      <trkpt lat="44.66415" lon="6.5825">
        <ele>1189</ele>
        <time>2011-08-12T11:03:13Z</time>
      </trkpt>
      <trkpt lat="44.66408" lon="6.58228">
        <ele>1191</ele>
        <time>2011-08-12T11:03:22Z</time>
      </trkpt>
      <trkpt lat="44.664" lon="6.58202">
        <ele>1193</ele>
        <time>2011-08-12T11:03:32Z</time>
      </trkpt>
      <trkpt lat="44.6639" lon="6.58187">
        <ele>1192</ele>
        <time>2011-08-12T11:03:40Z</time>
      </trkpt>
      <trkpt lat="44.6638" lon="6.5817">
        <ele>1191</ele>
        <time>2011-08-12T11:03:48Z</time>
      </trkpt>
      <trkpt lat="44.66372" lon="6.5815">
        <ele>1192</ele>
        <time>2011-08-12T11:03:56Z</time>
      </trkpt>
      <trkpt lat="44.66365" lon="6.58123">
        <ele>1194</ele>
        <time>2011-08-12T11:04:09Z</time>
      </trkpt>
      <trkpt lat="44.6636" lon="6.58102">
        <ele>1195</ele>
        <time>2011-08-12T11:04:19Z</time>
      </trkpt>
      <trkpt lat="44.66353" lon="6.58082">
        <ele>1194</ele>
        <time>2011-08-12T11:04:29Z</time>
      </trkpt>
      <trkpt lat="44.66367" lon="6.58093">
        <ele>1199</ele>
        <time>2011-08-12T11:04:41Z</time>
      </trkpt>
      <trkpt lat="44.66378" lon="6.58108">
        <ele>1202</ele>
        <time>2011-08-12T11:04:51Z</time>
      </trkpt>
      <trkpt lat="44.66393" lon="6.58128">
        <ele>1205</ele>
        <time>2011-08-12T11:05:08Z</time>
      </trkpt>
      <trkpt lat="44.6641" lon="6.58148">
        <ele>1209</ele>
        <time>2011-08-12T11:05:26Z</time>
      </trkpt>
      <trkpt lat="44.66423" lon="6.58162">
        <ele>1211</ele>
        <time>2011-08-12T11:05:38Z</time>
      </trkpt>
      <trkpt lat="44.66433" lon="6.58175">
        <ele>1212</ele>
        <time>2011-08-12T11:05:48Z</time>
      </trkpt>
      <trkpt lat="44.66443" lon="6.58188">
        <ele>1214</ele>
        <time>2011-08-12T11:05:59Z</time>
      </trkpt>
      <trkpt lat="44.66457" lon="6.58197">
        <ele>1219</ele>
        <time>2011-08-12T11:06:09Z</time>
      </trkpt>
      <trkpt lat="44.66468" lon="6.5821">
        <ele>1222</ele>
        <time>2011-08-12T11:06:19Z</time>
      </trkpt>
      <trkpt lat="44.6647" lon="6.5819">
        <ele>1227</ele>
        <time>2011-08-12T11:06:45Z</time>
      </trkpt>
      <trkpt lat="44.66462" lon="6.58172">
        <ele>1227</ele>
        <time>2011-08-12T11:06:58Z</time>
      </trkpt>
      <trkpt lat="44.6645" lon="6.58142">
        <ele>1229</ele>
        <time>2011-08-12T11:07:16Z</time>
      </trkpt>
      <trkpt lat="44.66443" lon="6.58122">
        <ele>1231</ele>
        <time>2011-08-12T11:07:28Z</time>
      </trkpt>
      <trkpt lat="44.6644" lon="6.581">
        <ele>1233</ele>
        <time>2011-08-12T11:07:40Z</time>
      </trkpt>
      <trkpt lat="44.66438" lon="6.58078">
        <ele>1235</ele>
        <time>2011-08-12T11:07:52Z</time>
      </trkpt>
      <trkpt lat="44.66438" lon="6.58045">
        <ele>1239</ele>
        <time>2011-08-12T11:08:10Z</time>
      </trkpt>
      <trkpt lat="44.6644" lon="6.58025">
        <ele>1242</ele>
        <time>2011-08-12T11:08:23Z</time>
      </trkpt>
      <trkpt lat="44.6644" lon="6.58003">
        <ele>1244</ele>
        <time>2011-08-12T11:08:35Z</time>
      </trkpt>
      <trkpt lat="44.6644" lon="6.57982">
        <ele>1246</ele>
        <time>2011-08-12T11:08:47Z</time>
      </trkpt>
      <trkpt lat="44.66447" lon="6.58">
        <ele>1248</ele>
        <time>2011-08-12T11:08:59Z</time>
      </trkpt>
      <trkpt lat="44.66453" lon="6.58017">
        <ele>1250</ele>
        <time>2011-08-12T11:12:41Z</time>
      </trkpt>
      <trkpt lat="44.66458" lon="6.5804">
        <ele>1250</ele>
        <time>2011-08-12T11:12:51Z</time>
      </trkpt>
      <trkpt lat="44.66463" lon="6.58063">
        <ele>1249</ele>
        <time>2011-08-12T11:13:01Z</time>
      </trkpt>
      <trkpt lat="44.6647" lon="6.58083">
        <ele>1249</ele>
        <time>2011-08-12T11:13:12Z</time>
      </trkpt>
      <trkpt lat="44.66478" lon="6.58102">
        <ele>1250</ele>
        <time>2011-08-12T11:13:22Z</time>
      </trkpt>
      <trkpt lat="44.66488" lon="6.58117">
        <ele>1252</ele>
        <time>2011-08-12T11:13:32Z</time>
      </trkpt>
      <trkpt lat="44.66508" lon="6.58147">
        <ele>1253</ele>
        <time>2011-08-12T11:13:50Z</time>
      </trkpt>
      <trkpt lat="44.66518" lon="6.5816">
        <ele>1255</ele>
        <time>2011-08-12T11:13:58Z</time>
      </trkpt>
      <trkpt lat="44.6653" lon="6.5817">
        <ele>1257</ele>
        <time>2011-08-12T11:14:09Z</time>
      </trkpt>
      <trkpt lat="44.66543" lon="6.58178">
        <ele>1260</ele>
        <time>2011-08-12T11:14:19Z</time>
      </trkpt>
      <trkpt lat="44.66558" lon="6.58182">
        <ele>1264</ele>
        <time>2011-08-12T11:14:29Z</time>
      </trkpt>
      <trkpt lat="44.66573" lon="6.58183">
        <ele>1268</ele>
        <time>2011-08-12T11:14:39Z</time>
      </trkpt>
      <trkpt lat="44.66587" lon="6.58192">
        <ele>1270</ele>
        <time>2011-08-12T11:14:49Z</time>
      </trkpt>
      <trkpt lat="44.66607" lon="6.58205">
        <ele>1273</ele>
        <time>2011-08-12T11:15:08Z</time>
      </trkpt>
      <trkpt lat="44.6662" lon="6.58215">
        <ele>1274</ele>
        <time>2011-08-12T11:15:20Z</time>
      </trkpt>
      <trkpt lat="44.66632" lon="6.58227">
        <ele>1275</ele>
        <time>2011-08-12T11:15:32Z</time>
      </trkpt>
      <trkpt lat="44.66652" lon="6.5824">
        <ele>1278</ele>
        <time>2011-08-12T11:15:50Z</time>
      </trkpt>
      <trkpt lat="44.6667" lon="6.58252">
        <ele>1281</ele>
        <time>2011-08-12T11:16:03Z</time>
      </trkpt>
      <trkpt lat="44.66682" lon="6.58263">
        <ele>1283</ele>
        <time>2011-08-12T11:16:15Z</time>
      </trkpt>
      <trkpt lat="44.66702" lon="6.58278">
        <ele>1286</ele>
        <time>2011-08-12T11:16:33Z</time>
      </trkpt>
      <trkpt lat="44.66715" lon="6.58288">
        <ele>1288</ele>
        <time>2011-08-12T11:16:45Z</time>
      </trkpt>
      <trkpt lat="44.66733" lon="6.58302">
        <ele>1291</ele>
        <time>2011-08-12T11:17:02Z</time>
      </trkpt>
      <trkpt lat="44.66752" lon="6.5832">
        <ele>1293</ele>
        <time>2011-08-12T11:17:20Z</time>
      </trkpt>
      <trkpt lat="44.66762" lon="6.58338">
        <ele>1290</ele>
        <time>2011-08-12T11:17:30Z</time>
      </trkpt>
      <trkpt lat="44.66773" lon="6.58353">
        <ele>1289</ele>
        <time>2011-08-12T11:17:41Z</time>
      </trkpt>
      <trkpt lat="44.66787" lon="6.5836">
        <ele>1291</ele>
        <time>2011-08-12T11:17:51Z</time>
      </trkpt>
      <trkpt lat="44.66802" lon="6.58363">
        <ele>1292</ele>
        <time>2011-08-12T11:18:01Z</time>
      </trkpt>
      <trkpt lat="44.66817" lon="6.58358">
        <ele>1296</ele>
        <time>2011-08-12T11:18:11Z</time>
      </trkpt>
      <trkpt lat="44.6683" lon="6.58353">
        <ele>1300</ele>
        <time>2011-08-12T11:18:21Z</time>
      </trkpt>
      <trkpt lat="44.66843" lon="6.58347">
        <ele>1304</ele>
        <time>2011-08-12T11:19:55Z</time>
      </trkpt>
      <trkpt lat="44.66858" lon="6.58345">
        <ele>1306</ele>
        <time>2011-08-12T11:20:05Z</time>
      </trkpt>
      <trkpt lat="44.66875" lon="6.58345">
        <ele>1308</ele>
        <time>2011-08-12T11:20:16Z</time>
      </trkpt>
      <trkpt lat="44.66892" lon="6.58347">
        <ele>1310</ele>
        <time>2011-08-12T11:20:28Z</time>
      </trkpt>
      <trkpt lat="44.66908" lon="6.58347">
        <ele>1312</ele>
        <time>2011-08-12T11:20:40Z</time>
      </trkpt>
      <trkpt lat="44.66923" lon="6.58348">
        <ele>1313</ele>
        <time>2011-08-12T11:20:50Z</time>
      </trkpt>
      <trkpt lat="44.66937" lon="6.58355">
        <ele>1316</ele>
        <time>2011-08-12T11:21:01Z</time>
      </trkpt>
      <trkpt lat="44.66955" lon="6.5837">
        <ele>1318</ele>
        <time>2011-08-12T11:21:19Z</time>
      </trkpt>
      <trkpt lat="44.6697" lon="6.58382">
        <ele>1319</ele>
        <time>2011-08-12T11:21:31Z</time>
      </trkpt>
      <trkpt lat="44.66983" lon="6.58387">
        <ele>1321</ele>
        <time>2011-08-12T11:21:44Z</time>
      </trkpt>
      <trkpt lat="44.66997" lon="6.58397">
        <ele>1323</ele>
        <time>2011-08-12T11:21:52Z</time>
      </trkpt>
      <trkpt lat="44.67012" lon="6.58402">
        <ele>1325</ele>
        <time>2011-08-12T11:22:02Z</time>
      </trkpt>
      <trkpt lat="44.6703" lon="6.58403">
        <ele>1326</ele>
        <time>2011-08-12T11:22:12Z</time>
      </trkpt>
      <trkpt lat="44.6705" lon="6.58403">
        <ele>1327</ele>
        <time>2011-08-12T11:22:24Z</time>
      </trkpt>
      <trkpt lat="44.67067" lon="6.58405">
        <ele>1331</ele>
        <time>2011-08-12T11:22:33Z</time>
      </trkpt>
      <trkpt lat="44.6708" lon="6.58415">
        <ele>1333</ele>
        <time>2011-08-12T11:22:43Z</time>
      </trkpt>
      <trkpt lat="44.6709" lon="6.58428">
        <ele>1334</ele>
        <time>2011-08-12T11:22:53Z</time>
      </trkpt>
      <trkpt lat="44.671" lon="6.58442">
        <ele>1335</ele>
        <time>2011-08-12T11:23:03Z</time>
      </trkpt>
      <trkpt lat="44.6711" lon="6.58458">
        <ele>1337</ele>
        <time>2011-08-12T11:23:13Z</time>
      </trkpt>
      <trkpt lat="44.6712" lon="6.58475">
        <ele>1338</ele>
        <time>2011-08-12T11:23:23Z</time>
      </trkpt>
      <trkpt lat="44.6713" lon="6.58492">
        <ele>1340</ele>
        <time>2011-08-12T11:23:33Z</time>
      </trkpt>
      <trkpt lat="44.6714" lon="6.5851">
        <ele>1341</ele>
        <time>2011-08-12T11:23:43Z</time>
      </trkpt>
      <trkpt lat="44.6715" lon="6.58525">
        <ele>1343</ele>
        <time>2011-08-12T11:23:54Z</time>
      </trkpt>
      <trkpt lat="44.67163" lon="6.5855">
        <ele>1345</ele>
        <time>2011-08-12T11:24:12Z</time>
      </trkpt>
      <trkpt lat="44.67172" lon="6.58567">
        <ele>1347</ele>
        <time>2011-08-12T11:24:22Z</time>
      </trkpt>
      <trkpt lat="44.67182" lon="6.58585">
        <ele>1349</ele>
        <time>2011-08-12T11:24:33Z</time>
      </trkpt>
      <trkpt lat="44.6719" lon="6.58603">
        <ele>1351</ele>
        <time>2011-08-12T11:24:41Z</time>
      </trkpt>
      <trkpt lat="44.67197" lon="6.58625">
        <ele>1352</ele>
        <time>2011-08-12T11:24:51Z</time>
      </trkpt>
      <trkpt lat="44.67203" lon="6.58647">
        <ele>1354</ele>
        <time>2011-08-12T11:25:01Z</time>
      </trkpt>
      <trkpt lat="44.67207" lon="6.58668">
        <ele>1355</ele>
        <time>2011-08-12T11:25:12Z</time>
      </trkpt>
      <trkpt lat="44.67212" lon="6.58687">
        <ele>1357</ele>
        <time>2011-08-12T11:25:22Z</time>
      </trkpt>
      <trkpt lat="44.67217" lon="6.58708">
        <ele>1357</ele>
        <time>2011-08-12T11:25:34Z</time>
      </trkpt>
      <trkpt lat="44.67223" lon="6.58725">
        <ele>1358</ele>
        <time>2011-08-12T11:25:43Z</time>
      </trkpt>
      <trkpt lat="44.67228" lon="6.58745">
        <ele>1358</ele>
        <time>2011-08-12T11:25:53Z</time>
      </trkpt>
      <trkpt lat="44.67235" lon="6.58763">
        <ele>1357</ele>
        <time>2011-08-12T11:26:03Z</time>
      </trkpt>
      <trkpt lat="44.67243" lon="6.58778">
        <ele>1357</ele>
        <time>2011-08-12T11:28:45Z</time>
      </trkpt>
      <trkpt lat="44.67255" lon="6.5879">
        <ele>1358</ele>
        <time>2011-08-12T11:28:51Z</time>
      </trkpt>
      <trkpt lat="44.6727" lon="6.58803">
        <ele>1360</ele>
        <time>2011-08-12T11:28:57Z</time>
      </trkpt>
      <trkpt lat="44.67292" lon="6.58822">
        <ele>1360</ele>
        <time>2011-08-12T11:29:04Z</time>
      </trkpt>
      <trkpt lat="44.67318" lon="6.58847">
        <ele>1360</ele>
        <time>2011-08-12T11:29:14Z</time>
      </trkpt>
      <trkpt lat="44.6733" lon="6.58857">
        <ele>1360</ele>
        <time>2011-08-12T11:29:18Z</time>
      </trkpt>
      <trkpt lat="44.67343" lon="6.58867">
        <ele>1360</ele>
        <time>2011-08-12T11:29:22Z</time>
      </trkpt>
      <trkpt lat="44.67358" lon="6.58878">
        <ele>1361</ele>
        <time>2011-08-12T11:29:26Z</time>
      </trkpt>
      <trkpt lat="44.67373" lon="6.58885">
        <ele>1363</ele>
        <time>2011-08-12T11:29:30Z</time>
      </trkpt>
      <trkpt lat="44.67387" lon="6.58895">
        <ele>1363</ele>
        <time>2011-08-12T11:29:34Z</time>
      </trkpt>
      <trkpt lat="44.67398" lon="6.58907">
        <ele>1362</ele>
        <time>2011-08-12T11:29:38Z</time>
      </trkpt>
      <trkpt lat="44.67412" lon="6.58918">
        <ele>1362</ele>
        <time>2011-08-12T11:29:44Z</time>
      </trkpt>
      <trkpt lat="44.67427" lon="6.58928">
        <ele>1362</ele>
        <time>2011-08-12T11:29:50Z</time>
      </trkpt>
      <trkpt lat="44.67443" lon="6.58935">
        <ele>1363</ele>
        <time>2011-08-12T11:29:56Z</time>
      </trkpt>
      <trkpt lat="44.6747" lon="6.58945">
        <ele>1364</ele>
        <time>2011-08-12T11:30:06Z</time>
      </trkpt>
      <trkpt lat="44.67487" lon="6.5895">
        <ele>1364</ele>
        <time>2011-08-12T11:30:12Z</time>
      </trkpt>
      <trkpt lat="44.67505" lon="6.58953">
        <ele>1365</ele>
        <time>2011-08-12T11:30:20Z</time>
      </trkpt>
      <trkpt lat="44.67533" lon="6.58957">
        <ele>1368</ele>
        <time>2011-08-12T11:30:29Z</time>
      </trkpt>
      <trkpt lat="44.67548" lon="6.58962">
        <ele>1369</ele>
        <time>2011-08-12T11:31:05Z</time>
      </trkpt>
      <trkpt lat="44.67562" lon="6.58977">
        <ele>1370</ele>
        <time>2011-08-12T11:31:11Z</time>
      </trkpt>
      <trkpt lat="44.67568" lon="6.58997">
        <ele>1370</ele>
        <time>2011-08-12T11:31:15Z</time>
      </trkpt>
      <trkpt lat="44.67562" lon="6.59013">
        <ele>1367</ele>
        <time>2011-08-12T11:31:19Z</time>
      </trkpt>
      <trkpt lat="44.67548" lon="6.59022">
        <ele>1364</ele>
        <time>2011-08-12T11:31:23Z</time>
      </trkpt>
      <trkpt lat="44.67535" lon="6.59033">
        <ele>1361</ele>
        <time>2011-08-12T11:31:27Z</time>
      </trkpt>
      <trkpt lat="44.67523" lon="6.59052">
        <ele>1357</ele>
        <time>2011-08-12T11:31:31Z</time>
      </trkpt>
      <trkpt lat="44.67523" lon="6.59073">
        <ele>1356</ele>
        <time>2011-08-12T11:31:35Z</time>
      </trkpt>
      <trkpt lat="44.67528" lon="6.59093">
        <ele>1356</ele>
        <time>2011-08-12T11:31:39Z</time>
      </trkpt>
      <trkpt lat="44.67533" lon="6.59122">
        <ele>1355</ele>
        <time>2011-08-12T11:31:44Z</time>
      </trkpt>
      <trkpt lat="44.67538" lon="6.59152">
        <ele>1354</ele>
        <time>2011-08-12T11:31:52Z</time>
      </trkpt>
      <trkpt lat="44.67533" lon="6.59175">
        <ele>1352</ele>
        <time>2011-08-12T11:31:58Z</time>
      </trkpt>
      <trkpt lat="44.67518" lon="6.59185">
        <ele>1347</ele>
        <time>2011-08-12T11:32:04Z</time>
      </trkpt>
      <trkpt lat="44.67502" lon="6.59183">
        <ele>1345</ele>
        <time>2011-08-12T11:32:08Z</time>
      </trkpt>
      <trkpt lat="44.67483" lon="6.59182">
        <ele>1342</ele>
        <time>2011-08-12T11:32:12Z</time>
      </trkpt>
      <trkpt lat="44.67465" lon="6.59173">
        <ele>1339</ele>
        <time>2011-08-12T11:32:16Z</time>
      </trkpt>
      <trkpt lat="44.67447" lon="6.59173">
        <ele>1335</ele>
        <time>2011-08-12T11:32:22Z</time>
      </trkpt>
      <trkpt lat="44.67427" lon="6.59173">
        <ele>1332</ele>
        <time>2011-08-12T11:32:28Z</time>
      </trkpt>
      <trkpt lat="44.67413" lon="6.59177">
        <ele>1330</ele>
        <time>2011-08-12T11:32:32Z</time>
      </trkpt>
      <trkpt lat="44.674" lon="6.59172">
        <ele>1327</ele>
        <time>2011-08-12T11:32:38Z</time>
      </trkpt>
      <trkpt lat="44.67412" lon="6.59152">
        <ele>1328</ele>
        <time>2011-08-12T11:32:44Z</time>
      </trkpt>
      <trkpt lat="44.67432" lon="6.59143">
        <ele>1331</ele>
        <time>2011-08-12T11:32:48Z</time>
      </trkpt>
      <trkpt lat="44.67443" lon="6.59133">
        <ele>1333</ele>
        <time>2011-08-12T11:32:55Z</time>
      </trkpt>
      <trkpt lat="44.67427" lon="6.59125">
        <ele>1329</ele>
        <time>2011-08-12T11:33:01Z</time>
      </trkpt>
      <trkpt lat="44.6741" lon="6.59113">
        <ele>1325</ele>
        <time>2011-08-12T11:33:05Z</time>
      </trkpt>
      <trkpt lat="44.67392" lon="6.59112">
        <ele>1320</ele>
        <time>2011-08-12T11:33:09Z</time>
      </trkpt>
      <trkpt lat="44.67377" lon="6.59108">
        <ele>1316</ele>
        <time>2011-08-12T11:33:13Z</time>
      </trkpt>
      <trkpt lat="44.67368" lon="6.59085">
        <ele>1313</ele>
        <time>2011-08-12T11:33:19Z</time>
      </trkpt>
      <trkpt lat="44.67358" lon="6.59067">
        <ele>1311</ele>
        <time>2011-08-12T11:33:25Z</time>
      </trkpt>
      <trkpt lat="44.67347" lon="6.59077">
        <ele>1308</ele>
        <time>2011-08-12T11:33:37Z</time>
      </trkpt>
      <trkpt lat="44.67338" lon="6.59098">
        <ele>1306</ele>
        <time>2011-08-12T11:33:43Z</time>
      </trkpt>
      <trkpt lat="44.67322" lon="6.59113">
        <ele>1300</ele>
        <time>2011-08-12T11:33:49Z</time>
      </trkpt>
      <trkpt lat="44.67298" lon="6.59138">
        <ele>1290</ele>
        <time>2011-08-12T11:33:55Z</time>
      </trkpt>
      <trkpt lat="44.67287" lon="6.59157">
        <ele>1286</ele>
        <time>2011-08-12T11:34:02Z</time>
      </trkpt>
      <trkpt lat="44.67275" lon="6.59178">
        <ele>1282</ele>
        <time>2011-08-12T11:34:08Z</time>
      </trkpt>
      <trkpt lat="44.67263" lon="6.59212">
        <ele>1275</ele>
        <time>2011-08-12T11:34:18Z</time>
      </trkpt>
      <trkpt lat="44.67248" lon="6.5923">
        <ele>1268</ele>
        <time>2011-08-12T11:34:24Z</time>
      </trkpt>
      <trkpt lat="44.6724" lon="6.59245">
        <ele>1264</ele>
        <time>2011-08-12T11:34:28Z</time>
      </trkpt>
      <trkpt lat="44.67252" lon="6.59262">
        <ele>1266</ele>
        <time>2011-08-12T11:35:16Z</time>
      </trkpt>
      <trkpt lat="44.67262" lon="6.59283">
        <ele>1265</ele>
        <time>2011-08-12T11:35:22Z</time>
      </trkpt>
      <trkpt lat="44.67272" lon="6.59308">
        <ele>1262</ele>
        <time>2011-08-12T11:35:27Z</time>
      </trkpt>
      <trkpt lat="44.67277" lon="6.59328">
        <ele>1260</ele>
        <time>2011-08-12T11:35:31Z</time>
      </trkpt>
      <trkpt lat="44.67273" lon="6.59355">
        <ele>1254</ele>
        <time>2011-08-12T11:35:37Z</time>
      </trkpt>
      <trkpt lat="44.67272" lon="6.59375">
        <ele>1249</ele>
        <time>2011-08-12T11:35:41Z</time>
      </trkpt>
      <trkpt lat="44.67265" lon="6.59392">
        <ele>1245</ele>
        <time>2011-08-12T11:35:45Z</time>
      </trkpt>
      <trkpt lat="44.67262" lon="6.59412">
        <ele>1242</ele>
        <time>2011-08-12T11:35:49Z</time>
      </trkpt>
      <trkpt lat="44.6727" lon="6.59432">
        <ele>1240</ele>
        <time>2011-08-12T11:35:55Z</time>
      </trkpt>
      <trkpt lat="44.67282" lon="6.59443">
        <ele>1241</ele>
        <time>2011-08-12T11:35:59Z</time>
      </trkpt>
      <trkpt lat="44.6727" lon="6.59457">
        <ele>1237</ele>
        <time>2011-08-12T11:36:07Z</time>
      </trkpt>
      <trkpt lat="44.67255" lon="6.5946">
        <ele>1234</ele>
        <time>2011-08-12T11:36:11Z</time>
      </trkpt>
      <trkpt lat="44.67242" lon="6.59468">
        <ele>1231</ele>
        <time>2011-08-12T11:36:15Z</time>
      </trkpt>
      <trkpt lat="44.67223" lon="6.59473">
        <ele>1227</ele>
        <time>2011-08-12T11:36:20Z</time>
      </trkpt>
      <trkpt lat="44.67207" lon="6.5947">
        <ele>1224</ele>
        <time>2011-08-12T11:36:26Z</time>
      </trkpt>
      <trkpt lat="44.67188" lon="6.59477">
        <ele>1220</ele>
        <time>2011-08-12T11:36:32Z</time>
      </trkpt>
      <trkpt lat="44.67152" lon="6.59488">
        <ele>1211</ele>
        <time>2011-08-12T11:36:44Z</time>
      </trkpt>
      <trkpt lat="44.67138" lon="6.59497">
        <ele>1207</ele>
        <time>2011-08-12T11:36:50Z</time>
      </trkpt>
      <trkpt lat="44.67128" lon="6.59512">
        <ele>1205</ele>
        <time>2011-08-12T11:37:24Z</time>
      </trkpt>
      <trkpt lat="44.67117" lon="6.59525">
        <ele>1203</ele>
        <time>2011-08-12T11:37:28Z</time>
      </trkpt>
      <trkpt lat="44.67105" lon="6.59538">
        <ele>1201</ele>
        <time>2011-08-12T11:37:33Z</time>
      </trkpt>
      <trkpt lat="44.67092" lon="6.59543">
        <ele>1198</ele>
        <time>2011-08-12T11:37:35Z</time>
      </trkpt>
      <trkpt lat="44.67077" lon="6.59547">
        <ele>1194</ele>
        <time>2011-08-12T11:37:39Z</time>
      </trkpt>
      <trkpt lat="44.67063" lon="6.5956">
        <ele>1191</ele>
        <time>2011-08-12T11:37:43Z</time>
      </trkpt>
      <trkpt lat="44.67062" lon="6.59582">
        <ele>1192</ele>
        <time>2011-08-12T11:37:47Z</time>
      </trkpt>
      <trkpt lat="44.67062" lon="6.59607">
        <ele>1193</ele>
        <time>2011-08-12T11:37:53Z</time>
      </trkpt>
      <trkpt lat="44.67062" lon="6.59632">
        <ele>1192</ele>
        <time>2011-08-12T11:37:59Z</time>
      </trkpt>
      <trkpt lat="44.67055" lon="6.59652">
        <ele>1188</ele>
        <time>2011-08-12T11:38:05Z</time>
      </trkpt>
      <trkpt lat="44.67042" lon="6.59662">
        <ele>1185</ele>
        <time>2011-08-12T11:38:09Z</time>
      </trkpt>
      <trkpt lat="44.67025" lon="6.5967">
        <ele>1180</ele>
        <time>2011-08-12T11:38:13Z</time>
      </trkpt>
      <trkpt lat="44.67007" lon="6.59678">
        <ele>1175</ele>
        <time>2011-08-12T11:38:18Z</time>
      </trkpt>
      <trkpt lat="44.6703" lon="6.59692">
        <ele>1175</ele>
        <time>2011-08-12T11:39:36Z</time>
      </trkpt>
      <trkpt lat="44.67045" lon="6.59705">
        <ele>1173</ele>
        <time>2011-08-12T11:39:42Z</time>
      </trkpt>
      <trkpt lat="44.67052" lon="6.59723">
        <ele>1166</ele>
        <time>2011-08-12T11:40:36Z</time>
      </trkpt>
      <trkpt lat="44.67067" lon="6.59722">
        <ele>1165</ele>
        <time>2011-08-12T11:40:47Z</time>
      </trkpt>
      <trkpt lat="44.6708" lon="6.59717">
        <ele>1166</ele>
        <time>2011-08-12T11:41:17Z</time>
      </trkpt>
      <trkpt lat="44.67097" lon="6.59725">
        <ele>1158</ele>
        <time>2011-08-12T11:41:35Z</time>
      </trkpt>
      <trkpt lat="44.67112" lon="6.59727">
        <ele>1155</ele>
        <time>2011-08-12T11:41:45Z</time>
      </trkpt>
      <trkpt lat="44.67128" lon="6.59727">
        <ele>1151</ele>
        <time>2011-08-12T11:41:54Z</time>
      </trkpt>
      <trkpt lat="44.67142" lon="6.59718">
        <ele>1154</ele>
        <time>2011-08-12T11:41:58Z</time>
      </trkpt>
      <trkpt lat="44.6716" lon="6.5971">
        <ele>1155</ele>
        <time>2011-08-12T11:42:06Z</time>
      </trkpt>
      <trkpt lat="44.67178" lon="6.5971">
        <ele>1150</ele>
        <time>2011-08-12T11:42:12Z</time>
      </trkpt>
      <trkpt lat="44.67198" lon="6.59708">
        <ele>1148</ele>
        <time>2011-08-12T11:42:16Z</time>
      </trkpt>
      <trkpt lat="44.67217" lon="6.59715">
        <ele>1142</ele>
        <time>2011-08-12T11:42:20Z</time>
      </trkpt>
      <trkpt lat="44.67232" lon="6.59715">
        <ele>1141</ele>
        <time>2011-08-12T11:42:24Z</time>
      </trkpt>
      <trkpt lat="44.67247" lon="6.59718">
        <ele>1137</ele>
        <time>2011-08-12T11:42:28Z</time>
      </trkpt>
      <trkpt lat="44.67263" lon="6.59722">
        <ele>1134</ele>
        <time>2011-08-12T11:42:32Z</time>
      </trkpt>
      <trkpt lat="44.67278" lon="6.5972">
        <ele>1133</ele>
        <time>2011-08-12T11:42:36Z</time>
      </trkpt>
      <trkpt lat="44.67297" lon="6.5972">
        <ele>1131</ele>
        <time>2011-08-12T11:42:40Z</time>
      </trkpt>
      <trkpt lat="44.67325" lon="6.59715">
        <ele>1130</ele>
        <time>2011-08-12T11:42:46Z</time>
      </trkpt>
      <trkpt lat="44.67348" lon="6.59715">
        <ele>1129</ele>
        <time>2011-08-12T11:42:53Z</time>
      </trkpt>
      <trkpt lat="44.67363" lon="6.5973">
        <ele>1122</ele>
        <time>2011-08-12T11:42:57Z</time>
      </trkpt>
      <trkpt lat="44.67387" lon="6.59753">
        <ele>1116</ele>
        <time>2011-08-12T11:43:03Z</time>
      </trkpt>
      <trkpt lat="44.67373" lon="6.59758">
        <ele>1112</ele>
        <time>2011-08-12T11:43:33Z</time>
      </trkpt>
      <trkpt lat="44.67382" lon="6.59782">
        <ele>1104</ele>
        <time>2011-08-12T11:43:55Z</time>
      </trkpt>
      <trkpt lat="44.67367" lon="6.5979">
        <ele>1098</ele>
        <time>2011-08-12T11:44:15Z</time>
      </trkpt>
      <trkpt lat="44.67368" lon="6.59812">
        <ele>1090</ele>
        <time>2011-08-12T11:44:49Z</time>
      </trkpt>
      <trkpt lat="44.6736" lon="6.59827">
        <ele>1083</ele>
        <time>2011-08-12T11:45:08Z</time>
      </trkpt>
      <trkpt lat="44.67363" lon="6.59847">
        <ele>1076</ele>
        <time>2011-08-12T11:45:20Z</time>
      </trkpt>
      <trkpt lat="44.6735" lon="6.59858">
        <ele>1069</ele>
        <time>2011-08-12T11:46:42Z</time>
      </trkpt>
      <trkpt lat="44.67347" lon="6.59878">
        <ele>1061</ele>
        <time>2011-08-12T11:47:30Z</time>
      </trkpt>
      <trkpt lat="44.6735" lon="6.599">
        <ele>1054</ele>
        <time>2011-08-12T11:48:15Z</time>
      </trkpt>
      <trkpt lat="44.67358" lon="6.59918">
        <ele>1049</ele>
        <time>2011-08-12T11:48:25Z</time>
      </trkpt>
      <trkpt lat="44.67343" lon="6.59917">
        <ele>1047</ele>
        <time>2011-08-12T11:49:32Z</time>
      </trkpt>
      <trkpt lat="44.67332" lon="6.59905">
        <ele>1049</ele>
        <time>2011-08-12T11:49:37Z</time>
      </trkpt>
      <trkpt lat="44.67318" lon="6.59893">
        <ele>1051</ele>
        <time>2011-08-12T11:49:43Z</time>
      </trkpt>
      <trkpt lat="44.67303" lon="6.59893">
        <ele>1050</ele>
        <time>2011-08-12T11:49:49Z</time>
      </trkpt>
      <trkpt lat="44.67287" lon="6.599">
        <ele>1048</ele>
        <time>2011-08-12T11:49:57Z</time>
      </trkpt>
      <trkpt lat="44.67275" lon="6.59917">
        <ele>1042</ele>
        <time>2011-08-12T11:50:01Z</time>
      </trkpt>
      <trkpt lat="44.67263" lon="6.59932">
        <ele>1038</ele>
        <time>2011-08-12T11:50:05Z</time>
      </trkpt>
      <trkpt lat="44.67248" lon="6.59938">
        <ele>1037</ele>
        <time>2011-08-12T11:50:09Z</time>
      </trkpt>
      <trkpt lat="44.6723" lon="6.59948">
        <ele>1035</ele>
        <time>2011-08-12T11:50:15Z</time>
      </trkpt>
      <trkpt lat="44.67208" lon="6.59955">
        <ele>1035</ele>
        <time>2011-08-12T11:50:21Z</time>
      </trkpt>
      <trkpt lat="44.6719" lon="6.59957">
        <ele>1034</ele>
        <time>2011-08-12T11:50:27Z</time>
      </trkpt>
      <trkpt lat="44.67175" lon="6.59963">
        <ele>1031</ele>
        <time>2011-08-12T11:50:31Z</time>
      </trkpt>
      <trkpt lat="44.6716" lon="6.5997">
        <ele>1027</ele>
        <time>2011-08-12T11:50:38Z</time>
      </trkpt>
      <trkpt lat="44.67138" lon="6.59982">
        <ele>1019</ele>
        <time>2011-08-12T11:50:46Z</time>
      </trkpt>
      <trkpt lat="44.67123" lon="6.59988">
        <ele>1014</ele>
        <time>2011-08-12T11:50:52Z</time>
      </trkpt>
      <trkpt lat="44.67108" lon="6.59997">
        <ele>1008</ele>
        <time>2011-08-12T11:50:58Z</time>
      </trkpt>
      <trkpt lat="44.67097" lon="6.60013">
        <ele>1002</ele>
        <time>2011-08-12T11:51:08Z</time>
      </trkpt>
      <trkpt lat="44.67085" lon="6.60023">
        <ele>997</ele>
        <time>2011-08-12T11:51:14Z</time>
      </trkpt>
      <trkpt lat="44.67067" lon="6.60038">
        <ele>991</ele>
        <time>2011-08-12T11:51:23Z</time>
      </trkpt>
      <trkpt lat="44.67057" lon="6.60053">
        <ele>984</ele>
        <time>2011-08-12T11:51:29Z</time>
      </trkpt>
      <trkpt lat="44.67038" lon="6.60065">
        <ele>976</ele>
        <time>2011-08-12T11:51:35Z</time>
      </trkpt>
      <trkpt lat="44.6703" lon="6.60083">
        <ele>968</ele>
        <time>2011-08-12T11:51:41Z</time>
      </trkpt>
      <trkpt lat="44.6701" lon="6.60068">
        <ele>967</ele>
        <time>2011-08-12T11:52:53Z</time>
      </trkpt>
      <trkpt lat="44.66995" lon="6.60073">
        <ele>961</ele>
        <time>2011-08-12T11:52:57Z</time>
      </trkpt>
      <trkpt lat="44.67007" lon="6.60093">
        <ele>958</ele>
        <time>2011-08-12T11:53:03Z</time>
      </trkpt>
      <trkpt lat="44.67018" lon="6.60107">
        <ele>956</ele>
        <time>2011-08-12T11:53:11Z</time>
      </trkpt>
      <trkpt lat="44.67033" lon="6.6012">
        <ele>956</ele>
        <time>2011-08-12T11:53:17Z</time>
      </trkpt>
      <trkpt lat="44.6702" lon="6.6013">
        <ele>948</ele>
        <time>2011-08-12T11:53:38Z</time>
      </trkpt>
      <trkpt lat="44.67003" lon="6.60128">
        <ele>944</ele>
        <time>2011-08-12T11:53:46Z</time>
      </trkpt>
      <trkpt lat="44.66978" lon="6.60118">
        <ele>942</ele>
        <time>2011-08-12T11:54:04Z</time>
      </trkpt>
      <trkpt lat="44.6696" lon="6.60118">
        <ele>938</ele>
        <time>2011-08-12T11:54:41Z</time>
      </trkpt>
      <trkpt lat="44.66945" lon="6.6011">
        <ele>938</ele>
        <time>2011-08-12T11:54:47Z</time>
      </trkpt>
      <trkpt lat="44.6693" lon="6.60105">
        <ele>937</ele>
        <time>2011-08-12T11:54:51Z</time>
      </trkpt>
      <trkpt lat="44.66917" lon="6.601">
        <ele>937</ele>
        <time>2011-08-12T11:54:55Z</time>
      </trkpt>
      <trkpt lat="44.66902" lon="6.60098">
        <ele>935</ele>
        <time>2011-08-12T11:55:01Z</time>
      </trkpt>
      <trkpt lat="44.66885" lon="6.60095">
        <ele>931</ele>
        <time>2011-08-12T11:55:07Z</time>
      </trkpt>
      <trkpt lat="44.6687" lon="6.60087">
        <ele>930</ele>
        <time>2011-08-12T11:55:13Z</time>
      </trkpt>
      <trkpt lat="44.66852" lon="6.60078">
        <ele>928</ele>
        <time>2011-08-12T11:55:19Z</time>
      </trkpt>
      <trkpt lat="44.66838" lon="6.60075">
        <ele>925</ele>
        <time>2011-08-12T11:55:23Z</time>
      </trkpt>
      <trkpt lat="44.66825" lon="6.60068">
        <ele>924</ele>
        <time>2011-08-12T11:55:27Z</time>
      </trkpt>
      <trkpt lat="44.66813" lon="6.60053">
        <ele>925</ele>
        <time>2011-08-12T11:55:37Z</time>
      </trkpt>
      <trkpt lat="44.66795" lon="6.60047">
        <ele>922</ele>
        <time>2011-08-12T11:55:44Z</time>
      </trkpt>
      <trkpt lat="44.6678" lon="6.60038">
        <ele>920</ele>
        <time>2011-08-12T11:55:50Z</time>
      </trkpt>
      <trkpt lat="44.66765" lon="6.60035">
        <ele>918</ele>
        <time>2011-08-12T11:55:56Z</time>
      </trkpt>
      <trkpt lat="44.66748" lon="6.60027">
        <ele>916</ele>
        <time>2011-08-12T11:56:06Z</time>
      </trkpt>
      <trkpt lat="44.66733" lon="6.60013">
        <ele>916</ele>
        <time>2011-08-12T11:56:12Z</time>
      </trkpt>
      <trkpt lat="44.66717" lon="6.60018">
        <ele>910</ele>
        <time>2011-08-12T11:56:20Z</time>
      </trkpt>
      <trkpt lat="44.6673" lon="6.60013">
        <ele>915</ele>
        <time>2011-08-12T11:57:11Z</time>
      </trkpt>
      <trkpt lat="44.66728" lon="6.60033">
        <ele>908</ele>
        <time>2011-08-12T11:57:56Z</time>
      </trkpt>
      <trkpt lat="44.66727" lon="6.60053">
        <ele>902</ele>
        <time>2011-08-12T11:58:41Z</time>
      </trkpt>
      <trkpt lat="44.66735" lon="6.60072">
        <ele>898</ele>
        <time>2011-08-12T11:59:32Z</time>
      </trkpt>
      <trkpt lat="44.66753" lon="6.60078">
        <ele>901</ele>
        <time>2011-08-12T11:59:38Z</time>
      </trkpt>
      <trkpt lat="44.66768" lon="6.60083">
        <ele>904</ele>
        <time>2011-08-12T11:59:42Z</time>
      </trkpt>
      <trkpt lat="44.66782" lon="6.60102">
        <ele>902</ele>
        <time>2011-08-12T11:59:46Z</time>
      </trkpt>
      <trkpt lat="44.66798" lon="6.60118">
        <ele>901</ele>
        <time>2011-08-12T11:59:50Z</time>
      </trkpt>
      <trkpt lat="44.6681" lon="6.60143">
        <ele>896</ele>
        <time>2011-08-12T11:59:55Z</time>
      </trkpt>
      <trkpt lat="44.66825" lon="6.6016">
        <ele>894</ele>
        <time>2011-08-12T11:59:59Z</time>
      </trkpt>
      <trkpt lat="44.66838" lon="6.60175">
        <ele>893</ele>
        <time>2011-08-12T12:00:03Z</time>
      </trkpt>
      <trkpt lat="44.66857" lon="6.60185">
        <ele>895</ele>
        <time>2011-08-12T12:00:07Z</time>
      </trkpt>
      <trkpt lat="44.66875" lon="6.60193">
        <ele>896</ele>
        <time>2011-08-12T12:00:11Z</time>
      </trkpt>
      <trkpt lat="44.669" lon="6.60205">
        <ele>897</ele>
        <time>2011-08-12T12:00:17Z</time>
      </trkpt>
      <trkpt lat="44.66915" lon="6.60208">
        <ele>898</ele>
        <time>2011-08-12T12:00:21Z</time>
      </trkpt>
      <trkpt lat="44.6693" lon="6.60222">
        <ele>897</ele>
        <time>2011-08-12T12:00:25Z</time>
      </trkpt>
      <trkpt lat="44.66955" lon="6.60247">
        <ele>894</ele>
        <time>2011-08-12T12:00:34Z</time>
      </trkpt>
      <trkpt lat="44.66967" lon="6.60258">
        <ele>894</ele>
        <time>2011-08-12T12:00:38Z</time>
      </trkpt>
      <trkpt lat="44.66977" lon="6.60272">
        <ele>893</ele>
        <time>2011-08-12T12:00:42Z</time>
      </trkpt>
      <trkpt lat="44.66987" lon="6.60295">
        <ele>892</ele>
        <time>2011-08-12T12:00:48Z</time>
      </trkpt>
      <trkpt lat="44.66987" lon="6.60315">
        <ele>890</ele>
        <time>2011-08-12T12:00:54Z</time>
      </trkpt>
      <trkpt lat="44.66975" lon="6.60335">
        <ele>887</ele>
        <time>2011-08-12T12:01:00Z</time>
      </trkpt>
      <trkpt lat="44.66965" lon="6.60353">
        <ele>886</ele>
        <time>2011-08-12T12:01:04Z</time>
      </trkpt>
      <trkpt lat="44.66957" lon="6.60373">
        <ele>884</ele>
        <time>2011-08-12T12:01:08Z</time>
      </trkpt>
      <trkpt lat="44.66948" lon="6.60398">
        <ele>883</ele>
        <time>2011-08-12T12:01:14Z</time>
      </trkpt>
      <trkpt lat="44.66943" lon="6.60422">
        <ele>883</ele>
        <time>2011-08-12T12:01:18Z</time>
      </trkpt>
      <trkpt lat="44.66937" lon="6.60458">
        <ele>882</ele>
        <time>2011-08-12T12:01:23Z</time>
      </trkpt>
      <trkpt lat="44.66938" lon="6.60485">
        <ele>882</ele>
        <time>2011-08-12T12:01:27Z</time>
      </trkpt>
      <trkpt lat="44.66942" lon="6.60512">
        <ele>882</ele>
        <time>2011-08-12T12:01:31Z</time>
      </trkpt>
      <trkpt lat="44.66945" lon="6.60533">
        <ele>882</ele>
        <time>2011-08-12T12:01:35Z</time>
      </trkpt>
      <trkpt lat="44.66948" lon="6.60558">
        <ele>882</ele>
        <time>2011-08-12T12:01:39Z</time>
      </trkpt>
      <trkpt lat="44.67013" lon="6.61118">
        <ele>889</ele>
        <time>2011-08-12T12:02:49Z</time>
      </trkpt>
      <trkpt lat="44.67022" lon="6.6115">
        <ele>889</ele>
        <time>2011-08-12T12:02:53Z</time>
      </trkpt>
      <trkpt lat="44.67028" lon="6.61177">
        <ele>890</ele>
        <time>2011-08-12T12:02:57Z</time>
      </trkpt>
      <trkpt lat="44.67018" lon="6.6119">
        <ele>890</ele>
        <time>2011-08-12T12:03:01Z</time>
      </trkpt>
      <trkpt lat="44.67005" lon="6.61198">
        <ele>890</ele>
        <time>2011-08-12T12:03:05Z</time>
      </trkpt>
      <trkpt lat="44.66992" lon="6.61203">
        <ele>890</ele>
        <time>2011-08-12T12:03:09Z</time>
      </trkpt>
      <trkpt lat="44.66982" lon="6.61227">
        <ele>891</ele>
        <time>2011-08-12T12:03:16Z</time>
      </trkpt>
      <trkpt lat="44.66975" lon="6.61243">
        <ele>891</ele>
        <time>2011-08-12T12:03:20Z</time>
      </trkpt>
      <trkpt lat="44.66968" lon="6.6126">
        <ele>891</ele>
        <time>2011-08-12T12:03:24Z</time>
      </trkpt>
      <trkpt lat="44.66962" lon="6.6128">
        <ele>891</ele>
        <time>2011-08-12T12:03:28Z</time>
      </trkpt>
      <trkpt lat="44.66953" lon="6.613">
        <ele>891</ele>
        <time>2011-08-12T12:03:32Z</time>
      </trkpt>
      <trkpt lat="44.66933" lon="6.6134">
        <ele>891</ele>
        <time>2011-08-12T12:03:40Z</time>
      </trkpt>
      <trkpt lat="44.66922" lon="6.61358">
        <ele>892</ele>
        <time>2011-08-12T12:03:44Z</time>
      </trkpt>
      <trkpt lat="44.66908" lon="6.61373">
        <ele>892</ele>
        <time>2011-08-12T12:03:48Z</time>
      </trkpt>
      <trkpt lat="44.66895" lon="6.6139">
        <ele>892</ele>
        <time>2011-08-12T12:03:53Z</time>
      </trkpt>
      <trkpt lat="44.66885" lon="6.61405">
        <ele>893</ele>
        <time>2011-08-12T12:03:57Z</time>
      </trkpt>
      <trkpt lat="44.66872" lon="6.61422">
        <ele>893</ele>
        <time>2011-08-12T12:04:01Z</time>
      </trkpt>
      <trkpt lat="44.66848" lon="6.61453">
        <ele>893</ele>
        <time>2011-08-12T12:04:07Z</time>
      </trkpt>
      <trkpt lat="44.6681" lon="6.61503">
        <ele>894</ele>
        <time>2011-08-12T12:04:19Z</time>
      </trkpt>
      <trkpt lat="44.66793" lon="6.61517">
        <ele>894</ele>
        <time>2011-08-12T12:04:24Z</time>
      </trkpt>
      <trkpt lat="44.6678" lon="6.61523">
        <ele>895</ele>
        <time>2011-08-12T12:04:28Z</time>
      </trkpt>
      <trkpt lat="44.66762" lon="6.61528">
        <ele>895</ele>
        <time>2011-08-12T12:04:34Z</time>
      </trkpt>
      <trkpt lat="44.66748" lon="6.61538">
        <ele>895</ele>
        <time>2011-08-12T12:04:38Z</time>
      </trkpt>
      <trkpt lat="44.66742" lon="6.61557">
        <ele>895</ele>
        <time>2011-08-12T12:04:42Z</time>
      </trkpt>
      <trkpt lat="44.66725" lon="6.61592">
        <ele>896</ele>
        <time>2011-08-12T12:04:50Z</time>
      </trkpt>
      <trkpt lat="44.66718" lon="6.61617">
        <ele>896</ele>
        <time>2011-08-12T12:04:56Z</time>
      </trkpt>
      <trkpt lat="44.66713" lon="6.61635">
        <ele>896</ele>
        <time>2011-08-12T12:06:29Z</time>
      </trkpt>
      <trkpt lat="44.66702" lon="6.61657">
        <ele>897</ele>
        <time>2011-08-12T12:06:37Z</time>
      </trkpt>
      <trkpt lat="44.66688" lon="6.61673">
        <ele>897</ele>
        <time>2011-08-12T12:06:43Z</time>
      </trkpt>
      <trkpt lat="44.66682" lon="6.6169">
        <ele>897</ele>
        <time>2011-08-12T12:06:47Z</time>
      </trkpt>
      <trkpt lat="44.6662" lon="6.61832">
        <ele>898</ele>
        <time>2011-08-12T12:07:20Z</time>
      </trkpt>
      <trkpt lat="44.66612" lon="6.6185">
        <ele>898</ele>
        <time>2011-08-12T12:07:24Z</time>
      </trkpt>
      <trkpt lat="44.66597" lon="6.61877">
        <ele>898</ele>
        <time>2011-08-12T12:07:30Z</time>
      </trkpt>
      <trkpt lat="44.66577" lon="6.61908">
        <ele>898</ele>
        <time>2011-08-12T12:07:38Z</time>
      </trkpt>
      <trkpt lat="44.66543" lon="6.61953">
        <ele>898</ele>
        <time>2011-08-12T12:07:48Z</time>
      </trkpt>
      <trkpt lat="44.66532" lon="6.61968">
        <ele>898</ele>
        <time>2011-08-12T12:07:53Z</time>
      </trkpt>
      <trkpt lat="44.66522" lon="6.61985">
        <ele>897</ele>
        <time>2011-08-12T12:07:57Z</time>
      </trkpt>
      <trkpt lat="44.6651" lon="6.62002">
        <ele>896</ele>
        <time>2011-08-12T12:08:01Z</time>
      </trkpt>
      <trkpt lat="44.66502" lon="6.62018">
        <ele>896</ele>
        <time>2011-08-12T12:08:05Z</time>
      </trkpt>
      <trkpt lat="44.66495" lon="6.62038">
        <ele>895</ele>
        <time>2011-08-12T12:08:09Z</time>
      </trkpt>
      <trkpt lat="44.665" lon="6.6206">
        <ele>894</ele>
        <time>2011-08-12T12:08:13Z</time>
      </trkpt>
      <trkpt lat="44.66505" lon="6.62078">
        <ele>894</ele>
        <time>2011-08-12T12:08:17Z</time>
      </trkpt>
      <trkpt lat="44.66492" lon="6.62098">
        <ele>893</ele>
        <time>2011-08-12T12:08:23Z</time>
      </trkpt>
      <trkpt lat="44.6648" lon="6.62112">
        <ele>893</ele>
        <time>2011-08-12T12:08:27Z</time>
      </trkpt>
      <trkpt lat="44.6647" lon="6.62128">
        <ele>893</ele>
        <time>2011-08-12T12:08:31Z</time>
      </trkpt>
      <trkpt lat="44.66462" lon="6.62148">
        <ele>892</ele>
        <time>2011-08-12T12:08:35Z</time>
      </trkpt>
      <trkpt lat="44.66452" lon="6.62177">
        <ele>892</ele>
        <time>2011-08-12T12:08:39Z</time>
      </trkpt>
      <trkpt lat="44.66447" lon="6.62198">
        <ele>894</ele>
        <time>2011-08-12T12:08:44Z</time>
      </trkpt>
      <trkpt lat="44.66437" lon="6.62222">
        <ele>895</ele>
        <time>2011-08-12T12:08:48Z</time>
      </trkpt>
      <trkpt lat="44.66428" lon="6.62245">
        <ele>897</ele>
        <time>2011-08-12T12:08:52Z</time>
      </trkpt>
      <trkpt lat="44.66408" lon="6.623">
        <ele>901</ele>
        <time>2011-08-12T12:09:02Z</time>
      </trkpt>
      <trkpt lat="44.66402" lon="6.62322">
        <ele>904</ele>
        <time>2011-08-12T12:09:06Z</time>
      </trkpt>
      <trkpt lat="44.6639" lon="6.62345">
        <ele>905</ele>
        <time>2011-08-12T12:09:10Z</time>
      </trkpt>
      <trkpt lat="44.66382" lon="6.62367">
        <ele>906</ele>
        <time>2011-08-12T12:09:15Z</time>
      </trkpt>
      <trkpt lat="44.6638" lon="6.62392">
        <ele>908</ele>
        <time>2011-08-12T12:09:19Z</time>
      </trkpt>
      <trkpt lat="44.66382" lon="6.62417">
        <ele>910</ele>
        <time>2011-08-12T12:09:23Z</time>
      </trkpt>
      <trkpt lat="44.66388" lon="6.62442">
        <ele>910</ele>
        <time>2011-08-12T12:09:27Z</time>
      </trkpt>
      <trkpt lat="44.66397" lon="6.62458">
        <ele>912</ele>
        <time>2011-08-12T12:09:31Z</time>
      </trkpt>
      <trkpt lat="44.6641" lon="6.62477">
        <ele>917</ele>
        <time>2011-08-12T12:09:35Z</time>
      </trkpt>
      <trkpt lat="44.6642" lon="6.62502">
        <ele>917</ele>
        <time>2011-08-12T12:09:41Z</time>
      </trkpt>
      <trkpt lat="44.66412" lon="6.62528">
        <ele>902</ele>
        <time>2011-08-12T12:09:47Z</time>
      </trkpt>
      <trkpt lat="44.66402" lon="6.62553">
        <ele>898</ele>
        <time>2011-08-12T12:09:54Z</time>
      </trkpt>
      <trkpt lat="44.6639" lon="6.62577">
        <ele>900</ele>
        <time>2011-08-12T12:10:00Z</time>
      </trkpt>
      <trkpt lat="44.66378" lon="6.62595">
        <ele>902</ele>
        <time>2011-08-12T12:10:06Z</time>
      </trkpt>
      <trkpt lat="44.6637" lon="6.62622">
        <ele>905</ele>
        <time>2011-08-12T12:10:10Z</time>
      </trkpt>
      <trkpt lat="44.6636" lon="6.62638">
        <ele>908</ele>
        <time>2011-08-12T12:10:14Z</time>
      </trkpt>
      <trkpt lat="44.6635" lon="6.62657">
        <ele>910</ele>
        <time>2011-08-12T12:10:20Z</time>
      </trkpt>
      <trkpt lat="44.66338" lon="6.62667">
        <ele>912</ele>
        <time>2011-08-12T12:10:24Z</time>
      </trkpt>
      <trkpt lat="44.66325" lon="6.62677">
        <ele>914</ele>
        <time>2011-08-12T12:10:28Z</time>
      </trkpt>
      <trkpt lat="44.6631" lon="6.62685">
        <ele>915</ele>
        <time>2011-08-12T12:10:33Z</time>
      </trkpt>
      <trkpt lat="44.66295" lon="6.6269">
        <ele>915</ele>
        <time>2011-08-12T12:10:37Z</time>
      </trkpt>
      <trkpt lat="44.66273" lon="6.627">
        <ele>916</ele>
        <time>2011-08-12T12:10:43Z</time>
      </trkpt>
      <trkpt lat="44.66252" lon="6.62712">
        <ele>916</ele>
        <time>2011-08-12T12:10:49Z</time>
      </trkpt>
      <trkpt lat="44.66238" lon="6.62717">
        <ele>917</ele>
        <time>2011-08-12T12:10:53Z</time>
      </trkpt>
      <trkpt lat="44.66225" lon="6.62723">
        <ele>917</ele>
        <time>2011-08-12T12:10:57Z</time>
      </trkpt>
      <trkpt lat="44.66208" lon="6.62735">
        <ele>918</ele>
        <time>2011-08-12T12:11:03Z</time>
      </trkpt>
      <trkpt lat="44.66197" lon="6.62748">
        <ele>920</ele>
        <time>2011-08-12T12:11:07Z</time>
      </trkpt>
      <trkpt lat="44.66183" lon="6.62758">
        <ele>920</ele>
        <time>2011-08-12T12:11:11Z</time>
      </trkpt>
      <trkpt lat="44.66162" lon="6.62778">
        <ele>921</ele>
        <time>2011-08-12T12:11:19Z</time>
      </trkpt>
      <trkpt lat="44.66143" lon="6.628">
        <ele>923</ele>
        <time>2011-08-12T12:11:26Z</time>
      </trkpt>
      <trkpt lat="44.66132" lon="6.6281">
        <ele>923</ele>
        <time>2011-08-12T12:11:30Z</time>
      </trkpt>
      <trkpt lat="44.66113" lon="6.62825">
        <ele>923</ele>
        <time>2011-08-12T12:11:36Z</time>
      </trkpt>
      <trkpt lat="44.66088" lon="6.6284">
        <ele>923</ele>
        <time>2011-08-12T12:11:44Z</time>
      </trkpt>
      <trkpt lat="44.66073" lon="6.62847">
        <ele>922</ele>
        <time>2011-08-12T12:11:50Z</time>
      </trkpt>
      <trkpt lat="44.66055" lon="6.62837">
        <ele>921</ele>
        <time>2011-08-12T12:11:58Z</time>
      </trkpt>
      <trkpt lat="44.66038" lon="6.62832">
        <ele>919</ele>
        <time>2011-08-12T12:12:04Z</time>
      </trkpt>
      <trkpt lat="44.66025" lon="6.6284">
        <ele>920</ele>
        <time>2011-08-12T12:12:12Z</time>
      </trkpt>
    </trkseg>
  </trk>
</gpx>